AFR126 YPPH-NTAA
Flight info
| Callsign | AFR126 |
|---|---|
| Flight time | 10h 22m |
| Altitude | 35000 |
| Route | YPPH/03 N0491F350 HECTO5 HECTO Y135 TEDUS J15 AD H247 CULIN/N0484F370 Y59 TESAT G595 NIMOD/N0490F390 G595 SABUB DCT AROBA AROB4K NTAA/04 |
| Aircraft | A359/H-SDE2E3GHIJ3J4J5LM1ORWXY/LB1D1 |
Departure
| Time | 2026-05-08 15:15 |
|---|---|
| Airport | Perth International Airport (YPPH) |
Arrival
| Time | 2026-05-09 01:38 |
|---|---|
| Airport | Fa'a'ā International Airport (NTAA) |
| Time | Latitude | Longitude | Altitude | Speed | Heading |
|---|---|---|---|---|---|
| 2026-05-08 14:13 | -31.94009 | 115.97377 | 83 ft | 0 kts | 162° |
| 2026-05-08 14:58 | -31.94003 | 115.97374 | 83 ft | 2 kts | 162° |
| 2026-05-08 14:58 | -31.93988 | 115.97369 | 82 ft | 2 kts | 162° |
| 2026-05-08 14:58 | -31.93974 | 115.97364 | 82 ft | 2 kts | 162° |
| 2026-05-08 14:58 | -31.93961 | 115.97359 | 82 ft | 2 kts | 162° |
| 2026-05-08 14:59 | -31.93946 | 115.97353 | 81 ft | 2 kts | 162° |
| 2026-05-08 14:59 | -31.93917 | 115.97348 | 81 ft | 2 kts | 219° |
| 2026-05-08 14:59 | -31.93909 | 115.97361 | 81 ft | 1 kts | 265° |
| 2026-05-08 15:00 | -31.93909 | 115.97368 | 81 ft | 1 kts | 270° |
| 2026-05-08 15:00 | -31.93909 | 115.97369 | 81 ft | 0 kts | 270° |
| 2026-05-08 15:05 | -31.93911 | 115.97351 | 81 ft | 5 kts | 261° |
| 2026-05-08 15:06 | -31.93929 | 115.97295 | 80 ft | 8 kts | 246° |
| 2026-05-08 15:06 | -31.93955 | 115.97223 | 79 ft | 10 kts | 254° |
| 2026-05-08 15:06 | -31.93950 | 115.97129 | 77 ft | 12 kts | 283° |
| 2026-05-08 15:06 | -31.93927 | 115.97015 | 74 ft | 15 kts | 284° |
| 2026-05-08 15:07 | -31.93929 | 115.96898 | 74 ft | 14 kts | 229° |
| 2026-05-08 15:07 | -31.94019 | 115.96859 | 76 ft | 13 kts | 194° |
| 2026-05-08 15:07 | -31.94115 | 115.96831 | 75 ft | 14 kts | 194° |
| 2026-05-08 15:07 | -31.94218 | 115.96801 | 76 ft | 14 kts | 193° |
| 2026-05-08 15:08 | -31.94317 | 115.96773 | 78 ft | 14 kts | 194° |
| 2026-05-08 15:08 | -31.94415 | 115.96744 | 79 ft | 14 kts | 194° |
| 2026-05-08 15:08 | -31.94518 | 115.96715 | 79 ft | 15 kts | 194° |
| 2026-05-08 15:08 | -31.94625 | 115.96684 | 79 ft | 16 kts | 194° |
| 2026-05-08 15:09 | -31.94736 | 115.96652 | 80 ft | 16 kts | 194° |
| 2026-05-08 15:09 | -31.94846 | 115.96619 | 82 ft | 15 kts | 194° |
| 2026-05-08 15:09 | -31.94951 | 115.96588 | 83 ft | 15 kts | 194° |
| 2026-05-08 15:09 | -31.95060 | 115.96557 | 83 ft | 16 kts | 193° |
| 2026-05-08 15:10 | -31.95171 | 115.96525 | 85 ft | 16 kts | 195° |
| 2026-05-08 15:10 | -31.95283 | 115.96492 | 85 ft | 17 kts | 193° |
| 2026-05-08 15:10 | -31.95400 | 115.96458 | 85 ft | 17 kts | 194° |
| 2026-05-08 15:10 | -31.95524 | 115.96422 | 85 ft | 18 kts | 194° |
| 2026-05-08 15:11 | -31.95652 | 115.96384 | 85 ft | 19 kts | 194° |
| 2026-05-08 15:11 | -31.95787 | 115.96345 | 85 ft | 19 kts | 194° |
| 2026-05-08 15:11 | -31.95873 | 115.96319 | 86 ft | 11 kts | 198° |
| 2026-05-08 15:11 | -31.95909 | 115.96281 | 87 ft | 4 kts | 245° |
| 2026-05-08 15:12 | -31.95914 | 115.96249 | 87 ft | 5 kts | 269° |
| 2026-05-08 15:12 | -31.95910 | 115.96207 | 86 ft | 0 kts | 281° |
| 2026-05-08 15:12 | -31.95910 | 115.96205 | 86 ft | 0 kts | 281° |
| 2026-05-08 15:13 | -31.95906 | 115.96188 | 86 ft | 3 kts | 282° |
| 2026-05-08 15:13 | -31.95899 | 115.96150 | 87 ft | 5 kts | 283° |
| 2026-05-08 15:13 | -31.95885 | 115.96085 | 88 ft | 11 kts | 282° |
| 2026-05-08 15:13 | -31.95865 | 115.96000 | 88 ft | 8 kts | 296° |
| 2026-05-08 15:14 | -31.95839 | 115.95986 | 88 ft | 4 kts | 359° |
| 2026-05-08 15:14 | -31.95810 | 115.95990 | 88 ft | 0 kts | 11° |
| 2026-05-08 15:14 | -31.95788 | 115.95996 | 88 ft | 18 kts | 13° |
| 2026-05-08 15:15 | -31.95431 | 115.96100 | 84 ft | 85 kts | 14° |
| 2026-05-08 15:15 | -31.94651 | 115.96326 | 79 ft | 142 kts | 14° |
| 2026-05-08 15:15 | -31.93563 | 115.96632 | 273 ft | 170 kts | 14° |
| 2026-05-08 15:15 | -31.92413 | 115.96942 | 926 ft | 170 kts | 18° |
| 2026-05-08 15:16 | -31.91314 | 115.97257 | 1738 ft | 161 kts | 20° |
| 2026-05-08 15:16 | -31.90279 | 115.97557 | 2377 ft | 153 kts | 20° |
| 2026-05-08 15:16 | -31.89237 | 115.97869 | 2825 ft | 155 kts | 19° |
| 2026-05-08 15:16 | -31.88196 | 115.98179 | 3259 ft | 157 kts | 19° |
| 2026-05-08 15:17 | -31.87181 | 115.98683 | 3529 ft | 164 kts | 42° |
| 2026-05-08 15:17 | -31.86522 | 115.99830 | 3819 ft | 178 kts | 69° |
| 2026-05-08 15:17 | -31.86353 | 116.01325 | 4108 ft | 193 kts | 80° |
| 2026-05-08 15:17 | -31.86236 | 116.02953 | 4368 ft | 208 kts | 80° |
| 2026-05-08 15:18 | -31.86109 | 116.04723 | 4686 ft | 223 kts | 81° |
| 2026-05-08 15:18 | -31.85980 | 116.06600 | 5007 ft | 239 kts | 81° |
| 2026-05-08 15:18 | -31.85849 | 116.08595 | 5419 ft | 250 kts | 82° |
| 2026-05-08 15:18 | -31.85720 | 116.10626 | 5993 ft | 255 kts | 82° |
| 2026-05-08 15:19 | -31.85517 | 116.12696 | 6570 ft | 258 kts | 77° |
| 2026-05-08 15:19 | -31.85161 | 116.14782 | 7177 ft | 261 kts | 75° |
| 2026-05-08 15:19 | -31.84764 | 116.16854 | 7793 ft | 264 kts | 75° |
| 2026-05-08 15:19 | -31.84354 | 116.18971 | 8404 ft | 266 kts | 75° |
| 2026-05-08 15:20 | -31.83941 | 116.21098 | 9009 ft | 269 kts | 75° |
| 2026-05-08 15:20 | -31.83528 | 116.23222 | 9601 ft | 271 kts | 75° |
| 2026-05-08 15:20 | -31.83109 | 116.25382 | 10197 ft | 273 kts | 75° |
| 2026-05-08 15:20 | -31.82678 | 116.27593 | 10564 ft | 284 kts | 75° |
| 2026-05-08 15:21 | -31.82226 | 116.29906 | 10845 ft | 297 kts | 75° |
| 2026-05-08 15:21 | -31.81754 | 116.32325 | 11115 ft | 311 kts | 75° |
| 2026-05-08 15:21 | -31.81268 | 116.34819 | 11371 ft | 324 kts | 75° |
| 2026-05-08 15:21 | -31.80755 | 116.37452 | 11630 ft | 337 kts | 76° |
| 2026-05-08 15:22 | -31.80218 | 116.40204 | 11886 ft | 350 kts | 76° |
| 2026-05-08 15:22 | -31.79664 | 116.43039 | 12128 ft | 362 kts | 76° |
| 2026-05-08 15:22 | -31.79097 | 116.45937 | 12382 ft | 373 kts | 76° |
| 2026-05-08 15:22 | -31.78510 | 116.48932 | 12809 ft | 379 kts | 76° |
| 2026-05-08 15:23 | -31.77917 | 116.51956 | 13357 ft | 381 kts | 76° |
| 2026-05-08 15:23 | -31.77326 | 116.54967 | 13897 ft | 382 kts | 76° |
| 2026-05-08 15:23 | -31.76724 | 116.58019 | 14415 ft | 384 kts | 76° |
| 2026-05-08 15:23 | -31.76117 | 116.61093 | 14909 ft | 387 kts | 76° |
| 2026-05-08 15:24 | -31.75512 | 116.64155 | 15384 ft | 389 kts | 76° |
| 2026-05-08 15:24 | -31.74901 | 116.67247 | 15851 ft | 392 kts | 76° |
| 2026-05-08 15:24 | -31.74282 | 116.70392 | 16316 ft | 394 kts | 76° |
| 2026-05-08 15:24 | -31.73667 | 116.73500 | 16771 ft | 397 kts | 76° |
| 2026-05-08 15:25 | -31.73040 | 116.76662 | 17229 ft | 399 kts | 76° |
| 2026-05-08 15:25 | -31.72410 | 116.79832 | 17670 ft | 401 kts | 76° |
| 2026-05-08 15:25 | -31.71778 | 116.83003 | 18114 ft | 403 kts | 76° |
| 2026-05-08 15:25 | -31.71133 | 116.86239 | 18541 ft | 405 kts | 76° |
| 2026-05-08 15:26 | -31.70492 | 116.89442 | 18951 ft | 408 kts | 76° |
| 2026-05-08 15:26 | -31.69847 | 116.92669 | 19355 ft | 410 kts | 76° |
| 2026-05-08 15:26 | -31.69185 | 116.95963 | 19755 ft | 413 kts | 76° |
| 2026-05-08 15:26 | -31.68528 | 116.99236 | 20135 ft | 415 kts | 76° |
| 2026-05-08 15:27 | -31.67867 | 117.02522 | 20504 ft | 418 kts | 76° |
| 2026-05-08 15:27 | -31.67348 | 117.05878 | 20841 ft | 422 kts | 84° |
| 2026-05-08 15:27 | -31.67373 | 117.09305 | 21198 ft | 426 kts | 95° |
| 2026-05-08 15:27 | -31.67967 | 117.12745 | 21601 ft | 429 kts | 105° |
| 2026-05-08 15:28 | -31.68939 | 117.16009 | 22003 ft | 431 kts | 108° |
| 2026-05-08 15:28 | -31.69990 | 117.19327 | 22344 ft | 434 kts | 109° |
| 2026-05-08 15:28 | -31.71041 | 117.22617 | 22639 ft | 436 kts | 109° |
| 2026-05-08 15:28 | -31.72113 | 117.25983 | 22988 ft | 438 kts | 109° |
| 2026-05-08 15:29 | -31.73178 | 117.29344 | 23337 ft | 440 kts | 109° |
| 2026-05-08 15:29 | -31.74229 | 117.32677 | 23648 ft | 442 kts | 109° |
| 2026-05-08 15:29 | -31.75292 | 117.36059 | 23940 ft | 444 kts | 109° |
| 2026-05-08 15:29 | -31.76372 | 117.39501 | 24240 ft | 446 kts | 109° |
| 2026-05-08 15:30 | -31.77442 | 117.42920 | 24507 ft | 448 kts | 109° |
| 2026-05-08 15:30 | -31.78507 | 117.46325 | 24757 ft | 451 kts | 109° |
| 2026-05-08 15:30 | -31.79588 | 117.49781 | 25027 ft | 453 kts | 109° |
| 2026-05-08 15:30 | -31.80679 | 117.53278 | 25289 ft | 454 kts | 109° |
| 2026-05-08 15:31 | -31.81770 | 117.56777 | 25565 ft | 456 kts | 109° |
| 2026-05-08 15:31 | -31.82856 | 117.60262 | 25816 ft | 457 kts | 109° |
| 2026-05-08 15:31 | -31.83939 | 117.63745 | 26051 ft | 459 kts | 109° |
| 2026-05-08 15:31 | -31.85039 | 117.67293 | 26291 ft | 460 kts | 109° |
| 2026-05-08 15:32 | -31.86124 | 117.70805 | 26532 ft | 462 kts | 109° |
| 2026-05-08 15:32 | -31.87223 | 117.74365 | 26760 ft | 463 kts | 109° |
| 2026-05-08 15:32 | -31.88323 | 117.77929 | 26985 ft | 465 kts | 109° |
| 2026-05-08 15:32 | -31.89424 | 117.81495 | 27213 ft | 466 kts | 109° |
| 2026-05-08 15:33 | -31.90536 | 117.85094 | 27417 ft | 467 kts | 109° |
| 2026-05-08 15:33 | -31.91630 | 117.88643 | 27603 ft | 469 kts | 109° |
| 2026-05-08 15:33 | -31.92743 | 117.92261 | 27799 ft | 470 kts | 109° |
| 2026-05-08 15:33 | -31.93852 | 117.95863 | 27992 ft | 471 kts | 109° |
| 2026-05-08 15:34 | -31.94965 | 117.99483 | 28221 ft | 472 kts | 109° |
| 2026-05-08 15:34 | -31.96078 | 118.03109 | 28476 ft | 471 kts | 109° |
| 2026-05-08 15:34 | -31.97188 | 118.06729 | 28759 ft | 470 kts | 109° |
| 2026-05-08 15:34 | -31.98286 | 118.10317 | 29022 ft | 470 kts | 109° |
| 2026-05-08 15:35 | -31.99399 | 118.13958 | 29301 ft | 469 kts | 109° |
| 2026-05-08 15:35 | -32.00486 | 118.17519 | 29598 ft | 467 kts | 109° |
| 2026-05-08 15:35 | -32.01581 | 118.21108 | 29890 ft | 465 kts | 109° |
| 2026-05-08 15:35 | -32.02676 | 118.24706 | 30150 ft | 464 kts | 109° |
| 2026-05-08 15:36 | -32.03754 | 118.28249 | 30370 ft | 464 kts | 109° |
| 2026-05-08 15:36 | -32.04834 | 118.31803 | 30600 ft | 463 kts | 109° |
| 2026-05-08 15:36 | -32.05922 | 118.35349 | 30796 ft | 462 kts | 110° |
| 2026-05-08 15:36 | -32.07144 | 118.38898 | 30971 ft | 463 kts | 113° |
| 2026-05-08 15:37 | -32.08488 | 118.42313 | 31117 ft | 464 kts | 116° |
| 2026-05-08 15:37 | -32.09981 | 118.45710 | 31262 ft | 464 kts | 117° |
| 2026-05-08 15:37 | -32.11516 | 118.49088 | 31429 ft | 465 kts | 118° |
| 2026-05-08 15:37 | -32.13041 | 118.52415 | 31595 ft | 464 kts | 118° |
| 2026-05-08 15:38 | -32.14561 | 118.55743 | 31765 ft | 464 kts | 118° |
| 2026-05-08 15:38 | -32.16085 | 118.59095 | 31935 ft | 464 kts | 118° |
| 2026-05-08 15:38 | -32.17612 | 118.62462 | 32108 ft | 463 kts | 118° |
| 2026-05-08 15:38 | -32.19119 | 118.65801 | 32276 ft | 463 kts | 117° |
| 2026-05-08 15:39 | -32.20629 | 118.69164 | 32435 ft | 463 kts | 117° |
| 2026-05-08 15:39 | -32.22127 | 118.72508 | 32584 ft | 463 kts | 117° |
| 2026-05-08 15:39 | -32.23625 | 118.75855 | 32729 ft | 463 kts | 117° |
| 2026-05-08 15:39 | -32.25132 | 118.79221 | 32864 ft | 463 kts | 117° |
| 2026-05-08 15:40 | -32.26620 | 118.82547 | 32985 ft | 463 kts | 117° |
| 2026-05-08 15:40 | -32.28129 | 118.85918 | 33114 ft | 463 kts | 117° |
| 2026-05-08 15:40 | -32.29647 | 118.89315 | 33247 ft | 463 kts | 117° |
| 2026-05-08 15:40 | -32.31138 | 118.92650 | 33373 ft | 463 kts | 118° |
| 2026-05-08 15:41 | -32.32653 | 118.96046 | 33523 ft | 463 kts | 118° |
| 2026-05-08 15:41 | -32.34143 | 118.99384 | 33637 ft | 463 kts | 118° |
| 2026-05-08 15:41 | -32.37170 | 119.06177 | 33799 ft | 465 kts | 118° |
| 2026-05-08 15:42 | -32.38660 | 119.09525 | 33906 ft | 465 kts | 118° |
| 2026-05-08 15:42 | -32.40165 | 119.12911 | 34008 ft | 465 kts | 118° |
| 2026-05-08 15:42 | -32.43176 | 119.19694 | 34170 ft | 466 kts | 118° |
| 2026-05-08 15:43 | -32.46195 | 119.26510 | 34322 ft | 467 kts | 118° |
| 2026-05-08 15:43 | -32.49200 | 119.33305 | 34487 ft | 467 kts | 118° |
| 2026-05-08 15:44 | -32.52221 | 119.40149 | 34615 ft | 468 kts | 118° |
| 2026-05-08 15:44 | -32.55234 | 119.46992 | 34728 ft | 469 kts | 118° |
| 2026-05-08 15:45 | -32.58255 | 119.53862 | 34884 ft | 469 kts | 118° |
| 2026-05-08 15:45 | -32.61256 | 119.60702 | 34999 ft | 470 kts | 118° |
| 2026-05-08 15:46 | -32.64272 | 119.67596 | 35098 ft | 471 kts | 117° |
| 2026-05-08 15:46 | -32.67273 | 119.74493 | 35166 ft | 472 kts | 117° |
| 2026-05-08 15:47 | -32.70281 | 119.81401 | 35256 ft | 472 kts | 117° |
| 2026-05-08 15:47 | -32.73291 | 119.88319 | 35360 ft | 473 kts | 117° |
| 2026-05-08 15:48 | -32.77811 | 119.98730 | 35458 ft | 474 kts | 117° |
| 2026-05-08 15:49 | -32.80832 | 120.05700 | 35476 ft | 475 kts | 117° |
| 2026-05-08 15:49 | -32.83842 | 120.12663 | 35494 ft | 475 kts | 117° |
| 2026-05-08 15:50 | -32.86859 | 120.19656 | 35501 ft | 474 kts | 117° |
| 2026-05-08 15:50 | -32.89863 | 120.26634 | 35503 ft | 475 kts | 117° |
| 2026-05-08 15:51 | -32.92842 | 120.33575 | 35503 ft | 474 kts | 117° |
| 2026-05-08 15:51 | -32.95844 | 120.40578 | 35503 ft | 474 kts | 117° |
| 2026-05-08 15:52 | -32.98585 | 120.47689 | 35509 ft | 473 kts | 111° |
| 2026-05-08 15:52 | -33.00698 | 120.55026 | 35508 ft | 473 kts | 106° |
| 2026-05-08 15:53 | -33.02192 | 120.62652 | 35518 ft | 472 kts | 101° |
| 2026-05-08 15:53 | -33.03343 | 120.70329 | 35516 ft | 472 kts | 100° |
| 2026-05-08 15:54 | -33.04476 | 120.78005 | 35521 ft | 472 kts | 100° |
| 2026-05-08 15:54 | -33.05610 | 120.85674 | 35514 ft | 472 kts | 100° |
| 2026-05-08 15:55 | -33.06750 | 120.93378 | 35516 ft | 472 kts | 99° |
| 2026-05-08 15:55 | -33.08440 | 121.04857 | 35509 ft | 471 kts | 99° |
| 2026-05-08 15:56 | -33.09570 | 121.12576 | 35518 ft | 471 kts | 99° |
| 2026-05-08 15:56 | -33.10703 | 121.20248 | 35522 ft | 472 kts | 100° |
| 2026-05-08 15:57 | -33.11843 | 121.27924 | 35520 ft | 471 kts | 100° |
| 2026-05-08 15:57 | -33.12959 | 121.35574 | 35519 ft | 471 kts | 99° |
| 2026-05-08 15:58 | -33.14070 | 121.43277 | 35517 ft | 470 kts | 99° |
| 2026-05-08 15:58 | -33.15161 | 121.50909 | 35526 ft | 470 kts | 99° |
| 2026-05-08 15:59 | -33.16255 | 121.58600 | 35527 ft | 470 kts | 99° |
| 2026-05-08 15:59 | -33.17335 | 121.66248 | 35520 ft | 470 kts | 99° |
| 2026-05-08 16:00 | -33.18404 | 121.73895 | 35531 ft | 470 kts | 99° |
| 2026-05-08 16:00 | -33.19479 | 121.81590 | 35521 ft | 469 kts | 99° |
| 2026-05-08 16:01 | -33.20723 | 121.89208 | 35524 ft | 470 kts | 101° |
| 2026-05-08 16:01 | -33.22072 | 121.96836 | 35541 ft | 470 kts | 101° |
| 2026-05-08 16:02 | -33.23402 | 122.04417 | 35528 ft | 469 kts | 101° |
| 2026-05-08 16:02 | -33.24731 | 122.12054 | 35531 ft | 469 kts | 101° |
| 2026-05-08 16:03 | -33.26047 | 122.19660 | 35541 ft | 469 kts | 101° |
| 2026-05-08 16:03 | -33.27354 | 122.27238 | 35538 ft | 468 kts | 101° |
| 2026-05-08 16:04 | -33.28656 | 122.34824 | 35551 ft | 468 kts | 101° |
| 2026-05-08 16:04 | -33.29959 | 122.42443 | 35538 ft | 467 kts | 101° |
| 2026-05-08 16:05 | -33.31252 | 122.50027 | 35544 ft | 467 kts | 101° |
| 2026-05-08 16:05 | -33.32538 | 122.57600 | 35534 ft | 467 kts | 101° |
| 2026-05-08 16:06 | -33.33819 | 122.65181 | 35544 ft | 467 kts | 100° |
| 2026-05-08 16:06 | -33.35088 | 122.72746 | 35529 ft | 466 kts | 100° |
| 2026-05-08 16:07 | -33.36361 | 122.80357 | 35530 ft | 465 kts | 101° |
| 2026-05-08 16:07 | -33.37620 | 122.87904 | 35524 ft | 465 kts | 101° |
| 2026-05-08 16:08 | -33.38882 | 122.95486 | 35525 ft | 465 kts | 101° |
| 2026-05-08 16:08 | -33.40131 | 123.03019 | 35523 ft | 465 kts | 100° |
| 2026-05-08 16:09 | -33.41394 | 123.10670 | 35535 ft | 465 kts | 100° |
| 2026-05-08 16:09 | -33.42639 | 123.18240 | 35543 ft | 465 kts | 100° |
| 2026-05-08 16:10 | -33.43886 | 123.25851 | 35526 ft | 465 kts | 100° |
| 2026-05-08 16:10 | -33.45126 | 123.33453 | 35537 ft | 465 kts | 100° |
| 2026-05-08 16:11 | -33.46361 | 123.41055 | 35537 ft | 464 kts | 100° |
| 2026-05-08 16:11 | -33.47599 | 123.48708 | 35523 ft | 465 kts | 100° |
| 2026-05-08 16:12 | -33.48823 | 123.56303 | 35529 ft | 465 kts | 100° |
| 2026-05-08 16:12 | -33.50044 | 123.63911 | 35542 ft | 465 kts | 100° |
| 2026-05-08 16:13 | -33.51270 | 123.71597 | 35532 ft | 465 kts | 100° |
| 2026-05-08 16:13 | -33.52472 | 123.79172 | 35533 ft | 465 kts | 100° |
| 2026-05-08 16:14 | -33.53679 | 123.86800 | 35540 ft | 464 kts | 100° |
| 2026-05-08 16:14 | -33.54872 | 123.94362 | 35542 ft | 465 kts | 100° |
| 2026-05-08 16:15 | -33.56066 | 124.01960 | 35540 ft | 465 kts | 100° |
| 2026-05-08 16:15 | -33.57258 | 124.09573 | 35543 ft | 465 kts | 100° |
| 2026-05-08 16:16 | -33.58435 | 124.17120 | 35550 ft | 465 kts | 100° |
| 2026-05-08 16:16 | -33.59620 | 124.24750 | 35552 ft | 465 kts | 100° |
| 2026-05-08 16:17 | -33.60797 | 124.32368 | 35553 ft | 465 kts | 100° |
| 2026-05-08 16:17 | -33.61964 | 124.39954 | 35542 ft | 465 kts | 100° |
| 2026-05-08 16:18 | -33.63128 | 124.47549 | 35538 ft | 464 kts | 100° |
| 2026-05-08 16:18 | -33.64284 | 124.55125 | 35543 ft | 464 kts | 100° |
| 2026-05-08 16:19 | -33.65441 | 124.62741 | 35556 ft | 465 kts | 100° |
| 2026-05-08 16:19 | -33.66587 | 124.70337 | 35556 ft | 465 kts | 99° |
| 2026-05-08 16:20 | -33.67726 | 124.77933 | 35559 ft | 464 kts | 99° |
| 2026-05-08 16:20 | -33.68861 | 124.85523 | 35556 ft | 464 kts | 99° |
| 2026-05-08 16:21 | -33.69995 | 124.93137 | 35550 ft | 464 kts | 99° |
| 2026-05-08 16:21 | -33.71124 | 125.00740 | 35526 ft | 464 kts | 99° |
| 2026-05-08 16:22 | -33.72257 | 125.08345 | 35511 ft | 465 kts | 99° |
| 2026-05-08 16:22 | -33.73386 | 125.15972 | 35525 ft | 465 kts | 99° |
| 2026-05-08 16:23 | -33.74512 | 125.23632 | 35531 ft | 466 kts | 99° |
| 2026-05-08 16:23 | -33.75622 | 125.31229 | 35537 ft | 466 kts | 99° |
| 2026-05-08 16:24 | -33.76739 | 125.38911 | 35545 ft | 466 kts | 99° |
| 2026-05-08 16:24 | -33.77845 | 125.46553 | 35549 ft | 465 kts | 99° |
| 2026-05-08 16:25 | -33.78940 | 125.54149 | 35553 ft | 465 kts | 99° |
| 2026-05-08 16:25 | -33.80035 | 125.61790 | 35555 ft | 465 kts | 99° |
| 2026-05-08 16:26 | -33.81130 | 125.69475 | 35557 ft | 466 kts | 99° |
| 2026-05-08 16:26 | -33.82209 | 125.77096 | 35553 ft | 466 kts | 99° |
| 2026-05-08 16:27 | -33.83291 | 125.84765 | 35556 ft | 465 kts | 99° |
| 2026-05-08 16:27 | -33.84364 | 125.92390 | 35553 ft | 465 kts | 99° |
| 2026-05-08 16:28 | -33.85437 | 126.00043 | 35546 ft | 465 kts | 99° |
| 2026-05-08 16:28 | -33.86508 | 126.07724 | 35539 ft | 465 kts | 99° |
| 2026-05-08 16:29 | -33.87564 | 126.15326 | 35541 ft | 465 kts | 99° |
| 2026-05-08 16:29 | -33.88622 | 126.22988 | 35539 ft | 466 kts | 99° |
| 2026-05-08 16:30 | -33.89677 | 126.30656 | 35541 ft | 465 kts | 99° |
| 2026-05-08 16:30 | -33.90723 | 126.38306 | 35535 ft | 465 kts | 99° |
| 2026-05-08 16:31 | -33.91769 | 126.45987 | 35527 ft | 465 kts | 99° |
| 2026-05-08 16:31 | -33.92801 | 126.53606 | 35532 ft | 465 kts | 99° |
| 2026-05-08 16:32 | -33.93835 | 126.61269 | 35532 ft | 466 kts | 99° |
| 2026-05-08 16:32 | -33.94867 | 126.68965 | 35533 ft | 466 kts | 98° |
| 2026-05-08 16:33 | -33.95885 | 126.76610 | 35537 ft | 465 kts | 98° |
| 2026-05-08 16:33 | -33.96904 | 126.84290 | 35539 ft | 465 kts | 98° |
| 2026-05-08 16:34 | -33.97915 | 126.91933 | 35546 ft | 464 kts | 98° |
| 2026-05-08 16:34 | -33.98925 | 126.99608 | 35551 ft | 465 kts | 98° |
| 2026-05-08 16:35 | -33.99930 | 127.07288 | 35549 ft | 465 kts | 98° |
| 2026-05-08 16:35 | -34.00926 | 127.14936 | 35542 ft | 466 kts | 98° |
| 2026-05-08 16:36 | -34.01926 | 127.22638 | 35541 ft | 465 kts | 98° |
| 2026-05-08 16:36 | -34.02919 | 127.30328 | 35542 ft | 465 kts | 98° |
| 2026-05-08 16:37 | -34.03900 | 127.37972 | 35542 ft | 465 kts | 98° |
| 2026-05-08 16:37 | -34.04887 | 127.45705 | 35539 ft | 465 kts | 98° |
| 2026-05-08 16:38 | -34.05857 | 127.53347 | 35540 ft | 466 kts | 98° |
| 2026-05-08 16:38 | -34.06833 | 127.61062 | 35541 ft | 466 kts | 98° |
| 2026-05-08 16:39 | -34.07799 | 127.68756 | 35541 ft | 466 kts | 98° |
| 2026-05-08 16:39 | -34.08764 | 127.76501 | 35540 ft | 466 kts | 98° |
| 2026-05-08 16:40 | -34.09719 | 127.84193 | 35541 ft | 466 kts | 98° |
| 2026-05-08 16:40 | -34.10688 | 127.91901 | 35542 ft | 466 kts | 98° |
| 2026-05-08 16:41 | -34.11652 | 127.99596 | 35539 ft | 466 kts | 98° |
| 2026-05-08 16:42 | -34.13098 | 128.11206 | 35539 ft | 468 kts | 98° |
| 2026-05-08 16:42 | -34.14046 | 128.18933 | 35532 ft | 468 kts | 98° |
| 2026-05-08 16:43 | -34.14983 | 128.26668 | 35530 ft | 468 kts | 98° |
| 2026-05-08 16:43 | -34.15917 | 128.34428 | 35527 ft | 467 kts | 98° |
| 2026-05-08 16:44 | -34.16845 | 128.42188 | 35533 ft | 467 kts | 98° |
| 2026-05-08 16:44 | -34.17765 | 128.49921 | 35537 ft | 468 kts | 98° |
| 2026-05-08 16:45 | -34.18684 | 128.57686 | 35534 ft | 469 kts | 97° |
| 2026-05-08 16:45 | -34.19597 | 128.65442 | 35535 ft | 468 kts | 97° |
| 2026-05-08 16:46 | -34.20504 | 128.73222 | 35535 ft | 468 kts | 97° |
| 2026-05-08 16:46 | -34.21404 | 128.80981 | 35539 ft | 468 kts | 97° |
| 2026-05-08 16:47 | -34.22300 | 128.88737 | 35542 ft | 469 kts | 97° |
| 2026-05-08 16:47 | -34.23193 | 128.96516 | 35541 ft | 470 kts | 97° |
| 2026-05-08 16:48 | -34.24084 | 129.04305 | 35542 ft | 469 kts | 97° |
| 2026-05-08 16:48 | -34.24971 | 129.12103 | 35541 ft | 469 kts | 97° |
| 2026-05-08 16:49 | -34.25854 | 129.19907 | 35532 ft | 469 kts | 97° |
| 2026-05-08 16:49 | -34.26728 | 129.27687 | 35533 ft | 469 kts | 97° |
| 2026-05-08 16:50 | -34.27595 | 129.35458 | 35531 ft | 470 kts | 97° |
| 2026-05-08 16:50 | -34.28467 | 129.43308 | 35528 ft | 469 kts | 97° |
| 2026-05-08 16:51 | -34.29324 | 129.51073 | 35525 ft | 469 kts | 97° |
| 2026-05-08 16:51 | -34.30186 | 129.58933 | 35527 ft | 469 kts | 97° |
| 2026-05-08 16:52 | -34.31038 | 129.66731 | 35527 ft | 470 kts | 96° |
| 2026-05-08 16:52 | -34.31880 | 129.74530 | 35527 ft | 471 kts | 96° |
| 2026-05-08 16:53 | -34.33138 | 129.86237 | 35525 ft | 469 kts | 96° |
| 2026-05-08 16:53 | -34.33974 | 129.94073 | 35526 ft | 469 kts | 96° |
| 2026-05-08 16:54 | -34.34803 | 130.01894 | 35522 ft | 469 kts | 96° |
| 2026-05-08 16:54 | -34.35626 | 130.09691 | 35523 ft | 470 kts | 96° |
| 2026-05-08 16:55 | -34.36443 | 130.17491 | 35523 ft | 470 kts | 96° |
| 2026-05-08 16:55 | -34.37260 | 130.25337 | 35520 ft | 470 kts | 96° |
| 2026-05-08 16:56 | -34.38067 | 130.33130 | 35519 ft | 470 kts | 96° |
| 2026-05-08 16:56 | -34.38874 | 130.40970 | 35517 ft | 470 kts | 96° |
| 2026-05-08 16:57 | -34.39670 | 130.48766 | 35516 ft | 470 kts | 96° |
| 2026-05-08 16:57 | -34.40464 | 130.56596 | 35514 ft | 470 kts | 96° |
| 2026-05-08 16:58 | -34.41255 | 130.64438 | 35513 ft | 470 kts | 96° |
| 2026-05-08 16:58 | -34.42037 | 130.72264 | 35513 ft | 470 kts | 96° |
| 2026-05-08 16:59 | -34.42817 | 130.80129 | 35507 ft | 470 kts | 96° |
| 2026-05-08 16:59 | -34.43589 | 130.87933 | 35511 ft | 470 kts | 96° |
| 2026-05-08 17:00 | -34.44358 | 130.95776 | 35504 ft | 469 kts | 96° |
| 2026-05-08 17:00 | -34.45119 | 131.03581 | 35512 ft | 469 kts | 96° |
| 2026-05-08 17:01 | -34.45879 | 131.11430 | 35518 ft | 469 kts | 96° |
| 2026-05-08 17:01 | -34.46251 | 131.15302 | 35636 ft | 469 kts | 96° |
| 2026-05-08 17:01 | -34.46625 | 131.19202 | 35384 ft | 467 kts | 96° |
| 2026-05-08 17:02 | -34.46997 | 131.23090 | 35613 ft | 468 kts | 96° |
| 2026-05-08 17:02 | -34.47370 | 131.27019 | 35559 ft | 467 kts | 96° |
| 2026-05-08 17:02 | -34.48107 | 131.34827 | 35507 ft | 468 kts | 96° |
| 2026-05-08 17:03 | -34.48838 | 131.42635 | 35519 ft | 467 kts | 95° |
| 2026-05-08 17:03 | -34.49563 | 131.50401 | 35508 ft | 467 kts | 96° |
| 2026-05-08 17:04 | -34.50304 | 131.58205 | 35512 ft | 467 kts | 96° |
| 2026-05-08 17:04 | -34.51033 | 131.65987 | 35499 ft | 467 kts | 95° |
| 2026-05-08 17:05 | -34.51751 | 131.73791 | 35507 ft | 467 kts | 95° |
| 2026-05-08 17:05 | -34.52466 | 131.81618 | 35501 ft | 467 kts | 95° |
| 2026-05-08 17:06 | -34.53172 | 131.89401 | 35504 ft | 466 kts | 95° |
| 2026-05-08 17:06 | -34.53873 | 131.97185 | 35499 ft | 466 kts | 95° |
| 2026-05-08 17:07 | -34.54565 | 132.04939 | 35500 ft | 466 kts | 95° |
| 2026-05-08 17:07 | -34.55257 | 132.12736 | 35501 ft | 465 kts | 95° |
| 2026-05-08 17:08 | -34.55942 | 132.20523 | 35495 ft | 466 kts | 95° |
| 2026-05-08 17:08 | -34.56622 | 132.28297 | 35501 ft | 465 kts | 95° |
| 2026-05-08 17:09 | -34.57300 | 132.36107 | 35493 ft | 465 kts | 95° |
| 2026-05-08 17:09 | -34.57858 | 132.42586 | 35495 ft | 465 kts | 95° |
| 2026-05-08 17:10 | -34.58631 | 132.51628 | 35505 ft | 465 kts | 95° |
| 2026-05-08 17:10 | -34.59292 | 132.59421 | 35496 ft | 465 kts | 95° |
| 2026-05-08 17:11 | -34.59952 | 132.67267 | 35494 ft | 465 kts | 94° |
| 2026-05-08 17:11 | -34.60596 | 132.75012 | 35495 ft | 465 kts | 94° |
| 2026-05-08 17:12 | -34.61241 | 132.82823 | 35493 ft | 464 kts | 94° |
| 2026-05-08 17:12 | -34.61879 | 132.90578 | 35482 ft | 464 kts | 95° |
| 2026-05-08 17:13 | -34.62511 | 132.98325 | 35475 ft | 464 kts | 95° |
| 2026-05-08 17:13 | -34.63142 | 133.06117 | 35474 ft | 464 kts | 95° |
| 2026-05-08 17:14 | -34.63764 | 133.13867 | 35481 ft | 464 kts | 94° |
| 2026-05-08 17:14 | -34.64386 | 133.21681 | 35473 ft | 464 kts | 95° |
| 2026-05-08 17:15 | -34.65000 | 133.29446 | 35315 ft | 463 kts | 94° |
| 2026-05-08 17:15 | -34.65606 | 133.37195 | 35437 ft | 464 kts | 94° |
| 2026-05-08 17:16 | -34.66209 | 133.44968 | 35462 ft | 465 kts | 94° |
| 2026-05-08 17:16 | -34.66809 | 133.52742 | 35482 ft | 465 kts | 94° |
| 2026-05-08 17:17 | -34.67403 | 133.60516 | 35480 ft | 464 kts | 94° |
| 2026-05-08 17:17 | -34.67995 | 133.68333 | 35491 ft | 463 kts | 94° |
| 2026-05-08 17:18 | -34.68574 | 133.76083 | 35486 ft | 463 kts | 94° |
| 2026-05-08 17:18 | -34.69152 | 133.83865 | 35488 ft | 463 kts | 94° |
| 2026-05-08 17:19 | -34.69723 | 133.91592 | 35471 ft | 463 kts | 94° |
| 2026-05-08 17:19 | -34.70293 | 133.99382 | 35469 ft | 463 kts | 94° |
| 2026-05-08 17:20 | -34.70857 | 134.07170 | 35451 ft | 462 kts | 94° |
| 2026-05-08 17:20 | -34.71415 | 134.14925 | 35462 ft | 462 kts | 94° |
| 2026-05-08 17:21 | -34.71963 | 134.22639 | 35457 ft | 462 kts | 94° |
| 2026-05-08 17:21 | -34.72508 | 134.30373 | 35450 ft | 462 kts | 94° |
| 2026-05-08 17:22 | -34.73052 | 134.38148 | 35459 ft | 462 kts | 94° |
| 2026-05-08 17:22 | -34.73587 | 134.45868 | 35458 ft | 461 kts | 94° |
| 2026-05-08 17:23 | -34.74120 | 134.53632 | 35461 ft | 460 kts | 94° |
| 2026-05-08 17:23 | -34.74641 | 134.61307 | 35461 ft | 460 kts | 94° |
| 2026-05-08 17:24 | -34.75162 | 134.69087 | 35459 ft | 460 kts | 93° |
| 2026-05-08 17:24 | -34.75676 | 134.76823 | 35456 ft | 459 kts | 93° |
| 2026-05-08 17:25 | -34.76181 | 134.84514 | 35463 ft | 459 kts | 93° |
| 2026-05-08 17:25 | -34.76682 | 134.92232 | 35453 ft | 459 kts | 93° |
| 2026-05-08 17:26 | -34.77181 | 134.99956 | 35452 ft | 459 kts | 93° |
| 2026-05-08 17:26 | -34.77679 | 135.07623 | 35454 ft | 458 kts | 93° |
| 2026-05-08 17:27 | -34.78172 | 135.15306 | 35461 ft | 458 kts | 93° |
| 2026-05-08 17:27 | -34.78657 | 135.23021 | 35459 ft | 457 kts | 93° |
| 2026-05-08 17:28 | -34.79136 | 135.30721 | 35451 ft | 457 kts | 93° |
| 2026-05-08 17:28 | -34.79606 | 135.38370 | 35447 ft | 458 kts | 93° |
| 2026-05-08 17:29 | -34.80074 | 135.46097 | 35442 ft | 457 kts | 93° |
| 2026-05-08 17:29 | -34.80536 | 135.53769 | 35442 ft | 457 kts | 93° |
| 2026-05-08 17:30 | -34.80991 | 135.61433 | 35438 ft | 457 kts | 93° |
| 2026-05-08 17:30 | -34.81444 | 135.69142 | 35438 ft | 456 kts | 92° |
| 2026-05-08 17:31 | -34.81889 | 135.76828 | 35437 ft | 456 kts | 92° |
| 2026-05-08 17:31 | -34.82330 | 135.84502 | 35438 ft | 456 kts | 92° |
| 2026-05-08 17:32 | -34.82762 | 135.92174 | 35436 ft | 456 kts | 92° |
| 2026-05-08 17:32 | -34.83193 | 135.99858 | 35439 ft | 456 kts | 92° |
| 2026-05-08 17:33 | -34.83630 | 136.07591 | 35441 ft | 457 kts | 93° |
| 2026-05-08 17:33 | -34.84057 | 136.15239 | 35452 ft | 456 kts | 93° |
| 2026-05-08 17:34 | -34.84481 | 136.22949 | 35645 ft | 456 kts | 93° |
| 2026-05-08 17:34 | -34.84687 | 136.26764 | 35506 ft | 454 kts | 93° |
| 2026-05-08 17:34 | -34.84893 | 136.30592 | 35459 ft | 454 kts | 93° |
| 2026-05-08 17:35 | -34.85300 | 136.38240 | 35451 ft | 454 kts | 93° |
| 2026-05-08 17:35 | -34.85701 | 136.45883 | 35444 ft | 454 kts | 93° |
| 2026-05-08 17:36 | -34.86096 | 136.53517 | 35439 ft | 454 kts | 93° |
| 2026-05-08 17:36 | -34.86488 | 136.61153 | 35430 ft | 454 kts | 93° |
| 2026-05-08 17:37 | -34.86880 | 136.68880 | 35426 ft | 454 kts | 92° |
| 2026-05-08 17:37 | -34.87263 | 136.76547 | 35424 ft | 454 kts | 92° |
| 2026-05-08 17:38 | -34.87638 | 136.84177 | 35419 ft | 455 kts | 92° |
| 2026-05-08 17:38 | -34.88011 | 136.91862 | 35414 ft | 455 kts | 92° |
| 2026-05-08 17:39 | -34.88380 | 136.99513 | 35417 ft | 454 kts | 92° |
| 2026-05-08 17:39 | -34.88743 | 137.07153 | 35411 ft | 454 kts | 92° |
| 2026-05-08 17:40 | -34.89099 | 137.14780 | 35422 ft | 454 kts | 92° |
| 2026-05-08 17:40 | -34.89453 | 137.22446 | 35425 ft | 454 kts | 93° |
| 2026-05-08 17:41 | -34.89800 | 137.30061 | 35423 ft | 455 kts | 93° |
| 2026-05-08 17:41 | -34.90145 | 137.37764 | 35426 ft | 455 kts | 93° |
| 2026-05-08 17:42 | -34.90480 | 137.45384 | 35425 ft | 453 kts | 93° |
| 2026-05-08 17:42 | -34.90811 | 137.53024 | 35422 ft | 453 kts | 93° |
| 2026-05-08 17:43 | -34.91140 | 137.60713 | 35421 ft | 454 kts | 93° |
| 2026-05-08 17:43 | -34.91472 | 137.68394 | 35420 ft | 454 kts | 92° |
| 2026-05-08 17:44 | -34.91795 | 137.76060 | 35421 ft | 454 kts | 92° |
| 2026-05-08 17:44 | -34.92110 | 137.83704 | 35418 ft | 453 kts | 92° |
| 2026-05-08 17:45 | -34.92420 | 137.91334 | 35418 ft | 453 kts | 92° |
| 2026-05-08 17:45 | -34.92723 | 137.98955 | 35409 ft | 453 kts | 92° |
| 2026-05-08 17:46 | -34.93024 | 138.06627 | 35400 ft | 454 kts | 92° |
| 2026-05-08 17:46 | -34.93320 | 138.14299 | 35391 ft | 454 kts | 92° |
| 2026-05-08 17:47 | -34.93607 | 138.21919 | 35392 ft | 453 kts | 92° |
| 2026-05-08 17:47 | -34.93846 | 138.28320 | 35396 ft | 454 kts | 92° |
| 2026-05-08 17:48 | -34.94172 | 138.37242 | 35396 ft | 454 kts | 92° |
| 2026-05-08 17:48 | -34.94444 | 138.44885 | 35399 ft | 454 kts | 92° |
| 2026-05-08 17:49 | -34.94713 | 138.52542 | 35405 ft | 454 kts | 92° |
| 2026-05-08 17:49 | -34.94916 | 138.60217 | 35400 ft | 453 kts | 92° |
| 2026-05-08 17:50 | -34.95088 | 138.67850 | 35398 ft | 454 kts | 91° |
| 2026-05-08 17:50 | -34.95257 | 138.75505 | 35392 ft | 453 kts | 91° |
| 2026-05-08 17:51 | -34.95423 | 138.83173 | 35387 ft | 453 kts | 91° |
| 2026-05-08 17:51 | -34.95586 | 138.90851 | 35386 ft | 453 kts | 91° |
| 2026-05-08 17:52 | -34.95743 | 138.98486 | 35381 ft | 454 kts | 91° |
| 2026-05-08 17:53 | -34.95969 | 139.09984 | 35388 ft | 454 kts | 91° |
| 2026-05-08 17:53 | -34.96114 | 139.17633 | 35389 ft | 454 kts | 91° |
| 2026-05-08 17:54 | -34.96256 | 139.25285 | 35388 ft | 454 kts | 91° |
| 2026-05-08 17:54 | -34.96392 | 139.32960 | 35386 ft | 454 kts | 91° |
| 2026-05-08 17:55 | -34.96522 | 139.40610 | 35387 ft | 454 kts | 91° |
| 2026-05-08 17:55 | -34.96650 | 139.48328 | 35383 ft | 454 kts | 91° |
| 2026-05-08 17:56 | -34.96770 | 139.55957 | 35389 ft | 454 kts | 91° |
| 2026-05-08 17:56 | -34.96887 | 139.63643 | 35397 ft | 455 kts | 92° |
| 2026-05-08 17:57 | -34.96998 | 139.71347 | 35392 ft | 455 kts | 91° |
| 2026-05-08 17:57 | -34.97105 | 139.79062 | 35382 ft | 454 kts | 91° |
| 2026-05-08 17:58 | -34.97207 | 139.86731 | 35379 ft | 454 kts | 91° |
| 2026-05-08 17:58 | -34.97304 | 139.94429 | 35373 ft | 455 kts | 91° |
| 2026-05-08 17:59 | -34.97396 | 140.02083 | 35372 ft | 456 kts | 91° |
| 2026-05-08 17:59 | -34.97483 | 140.09816 | 35371 ft | 456 kts | 91° |
| 2026-05-08 18:00 | -34.97564 | 140.17497 | 35371 ft | 456 kts | 91° |
| 2026-05-08 18:00 | -34.97675 | 140.29074 | 35368 ft | 456 kts | 91° |
| 2026-05-08 18:01 | -34.97745 | 140.36760 | 35362 ft | 456 kts | 91° |
| 2026-05-08 18:01 | -34.97818 | 140.44437 | 35363 ft | 456 kts | 91° |
| 2026-05-08 18:02 | -34.97884 | 140.52145 | 35361 ft | 457 kts | 91° |
| 2026-05-08 18:02 | -34.97941 | 140.59923 | 35365 ft | 458 kts | 91° |
| 2026-05-08 18:03 | -34.97991 | 140.67650 | 35373 ft | 458 kts | 91° |
| 2026-05-08 18:03 | -34.98037 | 140.75421 | 35376 ft | 459 kts | 91° |
| 2026-05-08 18:04 | -34.98078 | 140.83151 | 35376 ft | 459 kts | 91° |
| 2026-05-08 18:04 | -34.98116 | 140.90936 | 35374 ft | 459 kts | 91° |
| 2026-05-08 18:05 | -34.98147 | 140.98698 | 35372 ft | 459 kts | 91° |
| 2026-05-08 18:05 | -34.98174 | 141.06462 | 35367 ft | 460 kts | 91° |
| 2026-05-08 18:06 | -34.98195 | 141.14227 | 35365 ft | 462 kts | 91° |
| 2026-05-08 18:06 | -34.98212 | 141.22081 | 35364 ft | 466 kts | 91° |
| 2026-05-08 18:07 | -34.98222 | 141.29944 | 35348 ft | 467 kts | 91° |
| 2026-05-08 18:07 | -34.98225 | 141.37895 | 35346 ft | 468 kts | 91° |
| 2026-05-08 18:08 | -34.98225 | 141.45783 | 35341 ft | 468 kts | 91° |
| 2026-05-08 18:08 | -34.98226 | 141.53691 | 35340 ft | 468 kts | 91° |
| 2026-05-08 18:09 | -34.98224 | 141.61575 | 35335 ft | 468 kts | 91° |
| 2026-05-08 18:09 | -34.98211 | 141.69516 | 35337 ft | 468 kts | 90° |
| 2026-05-08 18:10 | -34.98193 | 141.77406 | 35332 ft | 469 kts | 90° |
| 2026-05-08 18:10 | -34.98169 | 141.85335 | 35338 ft | 469 kts | 90° |
| 2026-05-08 18:11 | -34.98139 | 141.93262 | 35344 ft | 469 kts | 90° |
| 2026-05-08 18:11 | -34.98105 | 142.01158 | 35349 ft | 469 kts | 90° |
| 2026-05-08 18:12 | -34.98064 | 142.09125 | 35347 ft | 468 kts | 90° |
| 2026-05-08 18:12 | -34.98020 | 142.17038 | 35353 ft | 469 kts | 90° |
| 2026-05-08 18:13 | -34.97970 | 142.24966 | 35347 ft | 468 kts | 90° |
| 2026-05-08 18:13 | -34.97915 | 142.32863 | 35340 ft | 468 kts | 90° |
| 2026-05-08 18:14 | -34.97854 | 142.40750 | 35340 ft | 468 kts | 90° |
| 2026-05-08 18:14 | -34.97789 | 142.48647 | 35331 ft | 468 kts | 90° |
| 2026-05-08 18:15 | -34.97718 | 142.56586 | 35335 ft | 468 kts | 90° |
| 2026-05-08 18:15 | -34.97642 | 142.64481 | 35326 ft | 467 kts | 90° |
| 2026-05-08 18:16 | -34.97561 | 142.72368 | 35330 ft | 468 kts | 90° |
| 2026-05-08 18:16 | -34.97474 | 142.80313 | 35329 ft | 468 kts | 90° |
| 2026-05-08 18:17 | -34.97383 | 142.88173 | 35329 ft | 467 kts | 90° |
| 2026-05-08 18:17 | -34.97286 | 142.96095 | 35327 ft | 467 kts | 90° |
| 2026-05-08 18:18 | -34.97183 | 143.03923 | 35328 ft | 467 kts | 90° |
| 2026-05-08 18:18 | -34.97075 | 143.11807 | 35330 ft | 466 kts | 90° |
| 2026-05-08 18:19 | -34.96960 | 143.19707 | 35328 ft | 465 kts | 90° |
| 2026-05-08 18:19 | -34.96856 | 143.27579 | 35325 ft | 465 kts | 90° |
| 2026-05-08 18:20 | -34.96772 | 143.35423 | 35324 ft | 464 kts | 90° |
| 2026-05-08 18:20 | -34.96679 | 143.43242 | 35317 ft | 464 kts | 90° |
| 2026-05-08 18:21 | -34.96578 | 143.51080 | 35322 ft | 464 kts | 90° |
| 2026-05-08 18:21 | -34.96470 | 143.58942 | 35322 ft | 464 kts | 90° |
| 2026-05-08 18:22 | -34.96357 | 143.66775 | 35320 ft | 462 kts | 90° |
| 2026-05-08 18:22 | -34.96238 | 143.74594 | 35311 ft | 462 kts | 90° |
| 2026-05-08 18:23 | -34.96115 | 143.82397 | 35305 ft | 462 kts | 90° |
| 2026-05-08 18:23 | -34.95988 | 143.90196 | 35308 ft | 463 kts | 90° |
| 2026-05-08 18:24 | -34.95855 | 143.97980 | 35310 ft | 463 kts | 90° |
| 2026-05-08 18:24 | -34.95717 | 144.05826 | 35308 ft | 462 kts | 90° |
| 2026-05-08 18:25 | -34.95573 | 144.13577 | 35303 ft | 460 kts | 90° |
| 2026-05-08 18:25 | -34.95425 | 144.21356 | 35303 ft | 461 kts | 90° |
| 2026-05-08 18:26 | -34.95272 | 144.29147 | 35310 ft | 462 kts | 90° |
| 2026-05-08 18:26 | -34.95115 | 144.36958 | 35311 ft | 461 kts | 90° |
| 2026-05-08 18:27 | -34.94981 | 144.43393 | 35313 ft | 460 kts | 90° |
| 2026-05-08 18:27 | -34.94785 | 144.52487 | 35310 ft | 460 kts | 90° |
| 2026-05-08 18:28 | -34.94612 | 144.60261 | 35304 ft | 461 kts | 90° |
| 2026-05-08 18:28 | -34.94494 | 144.65463 | 35316 ft | 460 kts | 90° |
| 2026-05-08 18:29 | -34.94250 | 144.75845 | 35310 ft | 462 kts | 89° |
| 2026-05-08 18:29 | -34.94061 | 144.83588 | 35305 ft | 462 kts | 90° |
| 2026-05-08 18:30 | -34.93866 | 144.91408 | 35311 ft | 460 kts | 90° |
| 2026-05-08 18:30 | -34.93665 | 144.99213 | 35302 ft | 460 kts | 90° |
| 2026-05-08 18:31 | -34.93460 | 145.06944 | 35311 ft | 460 kts | 90° |
| 2026-05-08 18:31 | -34.93256 | 145.14757 | 35307 ft | 461 kts | 90° |
| 2026-05-08 18:32 | -34.93043 | 145.22504 | 35303 ft | 461 kts | 90° |
| 2026-05-08 18:32 | -34.92821 | 145.30292 | 35299 ft | 461 kts | 90° |
| 2026-05-08 18:33 | -34.92593 | 145.38084 | 35301 ft | 461 kts | 90° |
| 2026-05-08 18:33 | -34.92358 | 145.45895 | 35308 ft | 460 kts | 90° |
| 2026-05-08 18:34 | -34.92121 | 145.53630 | 35295 ft | 461 kts | 90° |
| 2026-05-08 18:34 | -34.91875 | 145.61433 | 35302 ft | 461 kts | 90° |
| 2026-05-08 18:35 | -34.91625 | 145.69251 | 35291 ft | 461 kts | 90° |
| 2026-05-08 18:35 | -34.91370 | 145.77046 | 35293 ft | 462 kts | 90° |
| 2026-05-08 18:36 | -34.91112 | 145.84819 | 35289 ft | 461 kts | 90° |
| 2026-05-08 18:36 | -34.90849 | 145.92575 | 35289 ft | 461 kts | 90° |
| 2026-05-08 18:37 | -34.90580 | 146.00386 | 35288 ft | 462 kts | 90° |
| 2026-05-08 18:37 | -34.90306 | 146.08174 | 35278 ft | 462 kts | 89° |
| 2026-05-08 18:38 | -34.90025 | 146.15981 | 35284 ft | 461 kts | 89° |
| 2026-05-08 18:38 | -34.89743 | 146.23753 | 35278 ft | 462 kts | 90° |
| 2026-05-08 18:39 | -34.89452 | 146.31558 | 35278 ft | 463 kts | 90° |
| 2026-05-08 18:39 | -34.89157 | 146.39320 | 35276 ft | 462 kts | 90° |
| 2026-05-08 18:40 | -34.88859 | 146.47133 | 35269 ft | 463 kts | 90° |
| 2026-05-08 18:40 | -34.88554 | 146.54924 | 35271 ft | 464 kts | 90° |
| 2026-05-08 18:41 | -34.88244 | 146.62758 | 35272 ft | 463 kts | 90° |
| 2026-05-08 18:41 | -34.87929 | 146.70583 | 35266 ft | 463 kts | 89° |
| 2026-05-08 18:42 | -34.87607 | 146.78426 | 35265 ft | 464 kts | 89° |
| 2026-05-08 18:42 | -34.87281 | 146.86276 | 35264 ft | 465 kts | 89° |
| 2026-05-08 18:43 | -34.86949 | 146.94089 | 35260 ft | 464 kts | 89° |
| 2026-05-08 18:43 | -34.86614 | 147.01904 | 35257 ft | 464 kts | 89° |
| 2026-05-08 18:44 | -34.86272 | 147.09758 | 35254 ft | 465 kts | 89° |
| 2026-05-08 18:44 | -34.85925 | 147.17590 | 35256 ft | 465 kts | 89° |
| 2026-05-08 18:45 | -34.85576 | 147.25398 | 35257 ft | 465 kts | 89° |
| 2026-05-08 18:45 | -34.85215 | 147.33296 | 35251 ft | 466 kts | 89° |
| 2026-05-08 18:46 | -34.84855 | 147.41121 | 35257 ft | 467 kts | 89° |
| 2026-05-08 18:46 | -34.84486 | 147.48994 | 35265 ft | 468 kts | 89° |
| 2026-05-08 18:47 | -34.84110 | 147.56914 | 35261 ft | 468 kts | 89° |
| 2026-05-08 18:47 | -34.83733 | 147.64769 | 35264 ft | 469 kts | 89° |
| 2026-05-08 18:48 | -34.83346 | 147.72705 | 35265 ft | 468 kts | 89° |
| 2026-05-08 18:48 | -34.82958 | 147.80556 | 35272 ft | 469 kts | 89° |
| 2026-05-08 18:49 | -34.82564 | 147.88452 | 35267 ft | 468 kts | 89° |
| 2026-05-08 18:49 | -34.82164 | 147.96359 | 35272 ft | 470 kts | 89° |
| 2026-05-08 18:50 | -34.81758 | 148.04256 | 35270 ft | 471 kts | 89° |
| 2026-05-08 18:50 | -34.81343 | 148.12209 | 35272 ft | 471 kts | 89° |
| 2026-05-08 18:51 | -34.80927 | 148.20111 | 35269 ft | 471 kts | 89° |
| 2026-05-08 18:51 | -34.80505 | 148.28040 | 35270 ft | 471 kts | 89° |
| 2026-05-08 18:52 | -34.80076 | 148.35974 | 35268 ft | 471 kts | 89° |
| 2026-05-08 18:52 | -34.79643 | 148.43895 | 35267 ft | 471 kts | 89° |
| 2026-05-08 18:53 | -34.79205 | 148.51829 | 35270 ft | 472 kts | 89° |
| 2026-05-08 18:53 | -34.78760 | 148.59782 | 35267 ft | 472 kts | 89° |
| 2026-05-08 18:54 | -34.78307 | 148.67758 | 35267 ft | 472 kts | 88° |
| 2026-05-08 18:54 | -34.77851 | 148.75707 | 35263 ft | 473 kts | 88° |
| 2026-05-08 18:55 | -34.77160 | 148.87604 | 35254 ft | 474 kts | 88° |
| 2026-05-08 18:56 | -34.76689 | 148.95567 | 35250 ft | 474 kts | 88° |
| 2026-05-08 18:56 | -34.76208 | 149.03580 | 35250 ft | 475 kts | 88° |
| 2026-05-08 18:57 | -34.75726 | 149.11525 | 35247 ft | 474 kts | 88° |
| 2026-05-08 18:57 | -34.75235 | 149.19510 | 35266 ft | 474 kts | 88° |
| 2026-05-08 18:57 | -34.74988 | 149.23489 | 35532 ft | 471 kts | 88° |
| 2026-05-08 18:58 | -34.74714 | 149.27377 | 35917 ft | 467 kts | 86° |
| 2026-05-08 18:58 | -34.74271 | 149.31268 | 36174 ft | 466 kts | 83° |
| 2026-05-08 18:58 | -34.73636 | 149.35150 | 36274 ft | 468 kts | 79° |
| 2026-05-08 18:59 | -34.71791 | 149.42743 | 36370 ft | 473 kts | 72° |
| 2026-05-08 18:59 | -34.69180 | 149.50087 | 36572 ft | 476 kts | 66° |
| 2026-05-08 19:00 | -34.66077 | 149.57222 | 36753 ft | 477 kts | 65° |
| 2026-05-08 19:00 | -34.62962 | 149.64316 | 36865 ft | 478 kts | 65° |
| 2026-05-08 19:01 | -34.59848 | 149.71437 | 37000 ft | 479 kts | 64° |
| 2026-05-08 19:01 | -34.56718 | 149.78584 | 37139 ft | 480 kts | 64° |
| 2026-05-08 19:02 | -34.53573 | 149.85730 | 37260 ft | 482 kts | 64° |
| 2026-05-08 19:02 | -34.50434 | 149.92847 | 37271 ft | 483 kts | 64° |
| 2026-05-08 19:03 | -34.47261 | 150.00050 | 37273 ft | 483 kts | 64° |
| 2026-05-08 19:03 | -34.44094 | 150.07210 | 37277 ft | 484 kts | 64° |
| 2026-05-08 19:04 | -34.40931 | 150.14336 | 37276 ft | 485 kts | 64° |
| 2026-05-08 19:04 | -34.37724 | 150.21535 | 37274 ft | 486 kts | 64° |
| 2026-05-08 19:05 | -34.34539 | 150.28671 | 37267 ft | 485 kts | 64° |
| 2026-05-08 19:05 | -34.31324 | 150.35852 | 37271 ft | 485 kts | 64° |
| 2026-05-08 19:06 | -34.28115 | 150.43008 | 37266 ft | 487 kts | 64° |
| 2026-05-08 19:06 | -34.24925 | 150.50215 | 37271 ft | 487 kts | 64° |
| 2026-05-08 19:07 | -34.21744 | 150.57399 | 37261 ft | 488 kts | 64° |
| 2026-05-08 19:07 | -34.18548 | 150.64586 | 37090 ft | 486 kts | 64° |
| 2026-05-08 19:08 | -34.15352 | 150.71767 | 37236 ft | 489 kts | 63° |
| 2026-05-08 19:08 | -34.12113 | 150.79024 | 37257 ft | 491 kts | 63° |
| 2026-05-08 19:09 | -34.08867 | 150.86261 | 37259 ft | 492 kts | 63° |
| 2026-05-08 19:09 | -34.05629 | 150.93455 | 37259 ft | 492 kts | 63° |
| 2026-05-08 19:10 | -34.02353 | 151.00709 | 37249 ft | 493 kts | 64° |
| 2026-05-08 19:10 | -33.99107 | 151.07977 | 37245 ft | 492 kts | 66° |
| 2026-05-08 19:11 | -33.96475 | 151.15573 | 37240 ft | 491 kts | 74° |
| 2026-05-08 19:11 | -33.94737 | 151.23463 | 37240 ft | 489 kts | 82° |
| 2026-05-08 19:12 | -33.93900 | 151.31567 | 37238 ft | 487 kts | 89° |
| 2026-05-08 19:12 | -33.93579 | 151.39705 | 37229 ft | 488 kts | 90° |
| 2026-05-08 19:13 | -33.93270 | 151.47833 | 37229 ft | 488 kts | 90° |
| 2026-05-08 19:13 | -33.92945 | 151.55960 | 37224 ft | 488 kts | 90° |
| 2026-05-08 19:14 | -33.92607 | 151.64090 | 37234 ft | 489 kts | 90° |
| 2026-05-08 19:14 | -33.92262 | 151.72243 | 37210 ft | 487 kts | 89° |
| 2026-05-08 19:15 | -33.91913 | 151.80322 | 37204 ft | 489 kts | 89° |
| 2026-05-08 19:15 | -33.91551 | 151.88493 | 37201 ft | 490 kts | 89° |
| 2026-05-08 19:16 | -33.91179 | 151.96652 | 37200 ft | 490 kts | 89° |
| 2026-05-08 19:16 | -33.90808 | 152.04807 | 37197 ft | 490 kts | 90° |
| 2026-05-08 19:17 | -33.90755 | 152.13016 | 37187 ft | 490 kts | 94° |
| 2026-05-08 19:17 | -33.90836 | 152.21152 | 37181 ft | 489 kts | 93° |
| 2026-05-08 19:18 | -33.90903 | 152.29303 | 37184 ft | 490 kts | 93° |
| 2026-05-08 19:18 | -33.90957 | 152.37476 | 37189 ft | 491 kts | 93° |
| 2026-05-08 19:19 | -33.91002 | 152.45721 | 37185 ft | 492 kts | 93° |
| 2026-05-08 19:19 | -33.91040 | 152.53932 | 37191 ft | 493 kts | 93° |
| 2026-05-08 19:20 | -33.91072 | 152.62166 | 37185 ft | 494 kts | 94° |
| 2026-05-08 19:20 | -33.91098 | 152.70369 | 37185 ft | 493 kts | 93° |
| 2026-05-08 19:21 | -33.91116 | 152.78601 | 37183 ft | 494 kts | 93° |
| 2026-05-08 19:21 | -33.91130 | 152.86853 | 37187 ft | 494 kts | 93° |
| 2026-05-08 19:22 | -33.91134 | 152.95125 | 37155 ft | 494 kts | 93° |
| 2026-05-08 19:22 | -33.91127 | 153.03369 | 36994 ft | 494 kts | 93° |
| 2026-05-08 19:22 | -33.91125 | 153.07459 | 37398 ft | 494 kts | 93° |
| 2026-05-08 19:23 | -33.91125 | 153.11630 | 37129 ft | 494 kts | 93° |
| 2026-05-08 19:23 | -33.91135 | 153.15758 | 37384 ft | 495 kts | 93° |
| 2026-05-08 19:23 | -33.91143 | 153.19847 | 36934 ft | 494 kts | 94° |
| 2026-05-08 19:23 | -33.91145 | 153.23979 | 37083 ft | 493 kts | 93° |
| 2026-05-08 19:24 | -33.91143 | 153.28104 | 37136 ft | 495 kts | 93° |
| 2026-05-08 19:24 | -33.91128 | 153.36356 | 37157 ft | 498 kts | 93° |
| 2026-05-08 19:25 | -33.91105 | 153.44702 | 37147 ft | 499 kts | 93° |
| 2026-05-08 19:25 | -33.91071 | 153.53049 | 37161 ft | 501 kts | 94° |
| 2026-05-08 19:26 | -33.91031 | 153.61401 | 37163 ft | 500 kts | 93° |
| 2026-05-08 19:26 | -33.90979 | 153.69786 | 37165 ft | 502 kts | 92° |
| 2026-05-08 19:27 | -33.90939 | 153.78152 | 37168 ft | 502 kts | 93° |
| 2026-05-08 19:27 | -33.90911 | 153.86563 | 37160 ft | 505 kts | 94° |
| 2026-05-08 19:28 | -33.90864 | 153.94945 | 37171 ft | 505 kts | 93° |
| 2026-05-08 19:28 | -33.90803 | 154.03413 | 37165 ft | 507 kts | 93° |
| 2026-05-08 19:29 | -33.90733 | 154.11813 | 37171 ft | 506 kts | 93° |
| 2026-05-08 19:29 | -33.90653 | 154.20261 | 37167 ft | 506 kts | 93° |
| 2026-05-08 19:30 | -33.90568 | 154.28734 | 37167 ft | 508 kts | 93° |
| 2026-05-08 19:30 | -33.90471 | 154.37166 | 37169 ft | 508 kts | 94° |
| 2026-05-08 19:31 | -33.90372 | 154.45664 | 37158 ft | 507 kts | 94° |
| 2026-05-08 19:31 | -33.90041 | 154.54102 | 37158 ft | 509 kts | 89° |
| 2026-05-08 19:32 | -33.89327 | 154.62628 | 37153 ft | 510 kts | 88° |
| 2026-05-08 19:32 | -33.88589 | 154.71056 | 37136 ft | 510 kts | 88° |
| 2026-05-08 19:33 | -33.87864 | 154.79529 | 37116 ft | 510 kts | 88° |
| 2026-05-08 19:33 | -33.87143 | 154.87981 | 37105 ft | 512 kts | 88° |
| 2026-05-08 19:34 | -33.86417 | 154.96446 | 37104 ft | 512 kts | 88° |
| 2026-05-08 19:34 | -33.85677 | 155.04968 | 37106 ft | 513 kts | 88° |
| 2026-05-08 19:35 | -33.84930 | 155.13500 | 37108 ft | 515 kts | 88° |
| 2026-05-08 19:35 | -33.84184 | 155.22041 | 37116 ft | 516 kts | 88° |
| 2026-05-08 19:36 | -33.83437 | 155.30586 | 37112 ft | 515 kts | 88° |
| 2026-05-08 19:36 | -33.82681 | 155.39131 | 37105 ft | 516 kts | 88° |
| 2026-05-08 19:37 | -33.81919 | 155.47655 | 37108 ft | 517 kts | 88° |
| 2026-05-08 19:37 | -33.81141 | 155.56242 | 37108 ft | 518 kts | 88° |
| 2026-05-08 19:38 | -33.80356 | 155.64810 | 37105 ft | 519 kts | 88° |
| 2026-05-08 19:38 | -33.79568 | 155.73410 | 37109 ft | 520 kts | 88° |
| 2026-05-08 19:39 | -33.78762 | 155.82083 | 37106 ft | 520 kts | 88° |
| 2026-05-08 19:39 | -33.77965 | 155.90640 | 37109 ft | 521 kts | 88° |
| 2026-05-08 19:40 | -33.77145 | 155.99310 | 37097 ft | 522 kts | 88° |
| 2026-05-08 19:40 | -33.76325 | 156.07960 | 37095 ft | 523 kts | 88° |
| 2026-05-08 19:41 | -33.75497 | 156.16614 | 37100 ft | 524 kts | 88° |
| 2026-05-08 19:41 | -33.74663 | 156.25278 | 37093 ft | 524 kts | 88° |
| 2026-05-08 19:42 | -33.73827 | 156.33929 | 37096 ft | 526 kts | 87° |
| 2026-05-08 19:42 | -33.72979 | 156.42592 | 37089 ft | 526 kts | 88° |
| 2026-05-08 19:43 | -33.72115 | 156.51318 | 37092 ft | 526 kts | 88° |
| 2026-05-08 19:43 | -33.71255 | 156.60001 | 37087 ft | 528 kts | 87° |
| 2026-05-08 19:44 | -33.70382 | 156.68764 | 37083 ft | 531 kts | 86° |
| 2026-05-08 19:44 | -33.69500 | 156.77512 | 37086 ft | 529 kts | 87° |
| 2026-05-08 19:45 | -33.68613 | 156.86259 | 37085 ft | 530 kts | 87° |
| 2026-05-08 19:45 | -33.67720 | 156.95015 | 37069 ft | 532 kts | 86° |
| 2026-05-08 19:46 | -33.66815 | 157.03813 | 37083 ft | 532 kts | 86° |
| 2026-05-08 19:46 | -33.65444 | 157.17024 | 37067 ft | 534 kts | 87° |
| 2026-05-08 19:47 | -33.64523 | 157.25818 | 37074 ft | 534 kts | 86° |
| 2026-05-08 19:47 | -33.63593 | 157.34647 | 37073 ft | 535 kts | 86° |
| 2026-05-08 19:48 | -33.62658 | 157.43459 | 37058 ft | 535 kts | 86° |
| 2026-05-08 19:48 | -33.61717 | 157.52267 | 37059 ft | 535 kts | 86° |
| 2026-05-08 19:49 | -33.60770 | 157.61102 | 37054 ft | 536 kts | 86° |
| 2026-05-08 19:49 | -33.59816 | 157.69907 | 37060 ft | 537 kts | 86° |
| 2026-05-08 19:50 | -33.58850 | 157.78752 | 37046 ft | 537 kts | 86° |
| 2026-05-08 19:50 | -33.57877 | 157.87619 | 37041 ft | 538 kts | 86° |
| 2026-05-08 19:51 | -33.56898 | 157.96480 | 37047 ft | 537 kts | 86° |
| 2026-05-08 19:51 | -33.55916 | 158.05307 | 37019 ft | 537 kts | 86° |
| 2026-05-08 19:52 | -33.54918 | 158.14206 | 37028 ft | 540 kts | 85° |
| 2026-05-08 19:52 | -33.53920 | 158.23077 | 37038 ft | 540 kts | 85° |
| 2026-05-08 19:53 | -33.52912 | 158.31943 | 37031 ft | 540 kts | 85° |
| 2026-05-08 19:53 | -33.51888 | 158.40889 | 37044 ft | 542 kts | 86° |
| 2026-05-08 19:54 | -33.50869 | 158.49753 | 37033 ft | 542 kts | 85° |
| 2026-05-08 19:54 | -33.49834 | 158.58694 | 37024 ft | 544 kts | 85° |
| 2026-05-08 19:55 | -33.48787 | 158.67690 | 37030 ft | 544 kts | 84° |
| 2026-05-08 19:55 | -33.47742 | 158.76623 | 37029 ft | 546 kts | 84° |
| 2026-05-08 19:56 | -33.46682 | 158.85599 | 37030 ft | 546 kts | 84° |
| 2026-05-08 19:56 | -33.45623 | 158.94533 | 37023 ft | 546 kts | 84° |
| 2026-05-08 19:57 | -33.44545 | 159.03525 | 37023 ft | 546 kts | 84° |
| 2026-05-08 19:57 | -33.43471 | 159.12459 | 37104 ft | 548 kts | 84° |
| 2026-05-08 19:58 | -33.42378 | 159.21471 | 37041 ft | 546 kts | 84° |
| 2026-05-08 19:58 | -33.41287 | 159.30438 | 37019 ft | 546 kts | 84° |
| 2026-05-08 19:59 | -33.40188 | 159.39397 | 37016 ft | 547 kts | 84° |
| 2026-05-08 19:59 | -33.39074 | 159.48389 | 37017 ft | 547 kts | 84° |
| 2026-05-08 20:00 | -33.37957 | 159.57379 | 37004 ft | 549 kts | 84° |
| 2026-05-08 20:00 | -33.36833 | 159.66341 | 37004 ft | 550 kts | 83° |
| 2026-05-08 20:01 | -33.35697 | 159.75340 | 36999 ft | 551 kts | 83° |
| 2026-05-08 20:01 | -33.34558 | 159.84378 | 37003 ft | 552 kts | 83° |
| 2026-05-08 20:02 | -33.33471 | 159.93425 | 37000 ft | 552 kts | 83° |
| 2026-05-08 20:02 | -33.32369 | 160.02512 | 36998 ft | 552 kts | 83° |
| 2026-05-08 20:03 | -33.31256 | 160.11572 | 37002 ft | 552 kts | 83° |
| 2026-05-08 20:03 | -33.30129 | 160.20653 | 37000 ft | 553 kts | 82° |
| 2026-05-08 20:04 | -33.28997 | 160.29691 | 36997 ft | 553 kts | 82° |
| 2026-05-08 20:04 | -33.27850 | 160.38785 | 36991 ft | 554 kts | 82° |
| 2026-05-08 20:05 | -33.26694 | 160.47879 | 36987 ft | 554 kts | 82° |
| 2026-05-08 20:05 | -33.25538 | 160.56928 | 36990 ft | 554 kts | 82° |
| 2026-05-08 20:06 | -33.24381 | 160.65973 | 36983 ft | 554 kts | 81° |
| 2026-05-08 20:06 | -33.23208 | 160.75073 | 36987 ft | 556 kts | 81° |
| 2026-05-08 20:07 | -33.22034 | 160.84125 | 36981 ft | 555 kts | 81° |
| 2026-05-08 20:07 | -33.20845 | 160.93221 | 36979 ft | 556 kts | 81° |
| 2026-05-08 20:08 | -33.19651 | 161.02316 | 36983 ft | 556 kts | 81° |
| 2026-05-08 20:08 | -33.18444 | 161.11435 | 36972 ft | 557 kts | 81° |
| 2026-05-08 20:09 | -33.17236 | 161.20531 | 36977 ft | 558 kts | 80° |
| 2026-05-08 20:09 | -33.16018 | 161.29631 | 36975 ft | 557 kts | 80° |
| 2026-05-08 20:10 | -33.14797 | 161.38718 | 36974 ft | 558 kts | 80° |
| 2026-05-08 20:10 | -33.13561 | 161.47850 | 36973 ft | 559 kts | 80° |
| 2026-05-08 20:11 | -33.12317 | 161.56981 | 36972 ft | 559 kts | 80° |
| 2026-05-08 20:11 | -33.11072 | 161.66097 | 36970 ft | 560 kts | 79° |
| 2026-05-08 20:12 | -33.09819 | 161.75236 | 36977 ft | 562 kts | 79° |
| 2026-05-08 20:12 | -33.08555 | 161.84409 | 36978 ft | 562 kts | 79° |
| 2026-05-08 20:13 | -33.07280 | 161.93579 | 36983 ft | 562 kts | 79° |
| 2026-05-08 20:13 | -33.05998 | 162.02748 | 36976 ft | 563 kts | 78° |
| 2026-05-08 20:14 | -33.04707 | 162.11908 | 36973 ft | 564 kts | 79° |
| 2026-05-08 20:14 | -33.03401 | 162.21106 | 36969 ft | 565 kts | 79° |
| 2026-05-08 20:15 | -33.02104 | 162.30246 | 36966 ft | 565 kts | 78° |
| 2026-05-08 20:15 | -33.00787 | 162.39452 | 36974 ft | 564 kts | 79° |
| 2026-05-08 20:16 | -32.99463 | 162.48636 | 36971 ft | 565 kts | 78° |
| 2026-05-08 20:16 | -32.98133 | 162.57837 | 36962 ft | 566 kts | 78° |
| 2026-05-08 20:17 | -32.96795 | 162.67009 | 36963 ft | 566 kts | 78° |
| 2026-05-08 20:17 | -32.95451 | 162.76221 | 36972 ft | 566 kts | 77° |
| 2026-05-08 20:18 | -32.94089 | 162.85434 | 36969 ft | 566 kts | 78° |
| 2026-05-08 20:18 | -32.92718 | 162.94615 | 36967 ft | 566 kts | 77° |
| 2026-05-08 20:19 | -32.91503 | 163.03847 | 36967 ft | 567 kts | 81° |
| 2026-05-08 20:19 | -32.90557 | 163.13092 | 36958 ft | 567 kts | 81° |
| 2026-05-08 20:20 | -32.89590 | 163.22403 | 36887 ft | 567 kts | 81° |
| 2026-05-08 20:20 | -32.88570 | 163.31661 | 36940 ft | 569 kts | 81° |
| 2026-05-08 20:21 | -32.87544 | 163.40999 | 36962 ft | 569 kts | 81° |
| 2026-05-08 20:21 | -32.86530 | 163.50293 | 36926 ft | 569 kts | 81° |
| 2026-05-08 20:22 | -32.85516 | 163.59551 | 36873 ft | 570 kts | 81° |
| 2026-05-08 20:22 | -32.84999 | 163.64229 | 36997 ft | 570 kts | 81° |
| 2026-05-08 20:22 | -32.84488 | 163.68874 | 36950 ft | 569 kts | 80° |
| 2026-05-08 20:23 | -32.83456 | 163.78203 | 36946 ft | 570 kts | 80° |
| 2026-05-08 20:23 | -32.82421 | 163.87489 | 36939 ft | 570 kts | 80° |
| 2026-05-08 20:24 | -32.81373 | 163.96793 | 36936 ft | 570 kts | 80° |
| 2026-05-08 20:24 | -32.80315 | 164.06120 | 36924 ft | 570 kts | 80° |
| 2026-05-08 20:25 | -32.79259 | 164.15395 | 36928 ft | 571 kts | 79° |
| 2026-05-08 20:25 | -32.78188 | 164.24705 | 36928 ft | 570 kts | 79° |
| 2026-05-08 20:26 | -32.77113 | 164.33995 | 36926 ft | 571 kts | 79° |
| 2026-05-08 20:26 | -32.76029 | 164.43303 | 36928 ft | 571 kts | 79° |
| 2026-05-08 20:27 | -32.75479 | 164.48012 | 36808 ft | 570 kts | 79° |
| 2026-05-08 20:27 | -32.74934 | 164.52634 | 36852 ft | 571 kts | 79° |
| 2026-05-08 20:27 | -32.73837 | 164.61949 | 36933 ft | 571 kts | 79° |
| 2026-05-08 20:28 | -32.72737 | 164.71242 | 36936 ft | 571 kts | 78° |
| 2026-05-08 20:28 | -32.71623 | 164.80586 | 36881 ft | 571 kts | 78° |
| 2026-05-08 20:29 | -32.70506 | 164.89890 | 36909 ft | 572 kts | 78° |
| 2026-05-08 20:29 | -32.69387 | 164.99149 | 36956 ft | 571 kts | 78° |
| 2026-05-08 20:30 | -32.68253 | 165.08456 | 36931 ft | 572 kts | 78° |
| 2026-05-08 20:30 | -32.67106 | 165.17778 | 36919 ft | 572 kts | 78° |
| 2026-05-08 20:31 | -32.65962 | 165.27066 | 36878 ft | 573 kts | 78° |
| 2026-05-08 20:31 | -32.64803 | 165.36392 | 36909 ft | 573 kts | 78° |
| 2026-05-08 20:32 | -32.63635 | 165.45744 | 36915 ft | 574 kts | 78° |
| 2026-05-08 20:32 | -32.62467 | 165.55045 | 36907 ft | 573 kts | 78° |
| 2026-05-08 20:33 | -32.61290 | 165.64351 | 36911 ft | 573 kts | 78° |
| 2026-05-08 20:33 | -32.60112 | 165.73653 | 36916 ft | 573 kts | 77° |
| 2026-05-08 20:34 | -32.58923 | 165.82965 | 36920 ft | 573 kts | 77° |
| 2026-05-08 20:35 | -32.57122 | 165.96925 | 36930 ft | 573 kts | 77° |
| 2026-05-08 20:35 | -32.55911 | 166.06238 | 36924 ft | 573 kts | 77° |
| 2026-05-08 20:36 | -32.54698 | 166.15521 | 36925 ft | 574 kts | 77° |
| 2026-05-08 20:36 | -32.53471 | 166.24829 | 36922 ft | 575 kts | 77° |
| 2026-05-08 20:37 | -32.52232 | 166.34166 | 36924 ft | 575 kts | 77° |
| 2026-05-08 20:37 | -32.50985 | 166.43520 | 36915 ft | 575 kts | 77° |
| 2026-05-08 20:38 | -32.49741 | 166.52785 | 36921 ft | 575 kts | 76° |
| 2026-05-08 20:38 | -32.48476 | 166.62120 | 36931 ft | 575 kts | 76° |
| 2026-05-08 20:39 | -32.47212 | 166.71428 | 36928 ft | 576 kts | 76° |
| 2026-05-08 20:39 | -32.45967 | 166.80778 | 36921 ft | 576 kts | 76° |
| 2026-05-08 20:40 | -32.44700 | 166.90131 | 36928 ft | 576 kts | 76° |
| 2026-05-08 20:40 | -32.43425 | 166.99428 | 36924 ft | 576 kts | 76° |
| 2026-05-08 20:41 | -32.42136 | 167.08742 | 36914 ft | 577 kts | 76° |
| 2026-05-08 20:41 | -32.40832 | 167.18097 | 36913 ft | 577 kts | 76° |
| 2026-05-08 20:42 | -32.39520 | 167.27458 | 36910 ft | 577 kts | 76° |
| 2026-05-08 20:42 | -32.38203 | 167.36786 | 36915 ft | 578 kts | 76° |
| 2026-05-08 20:43 | -32.36888 | 167.46086 | 36913 ft | 577 kts | 76° |
| 2026-05-08 20:43 | -32.35551 | 167.55470 | 36909 ft | 578 kts | 76° |
| 2026-05-08 20:44 | -32.34217 | 167.64786 | 36915 ft | 578 kts | 76° |
| 2026-05-08 20:44 | -32.32879 | 167.74130 | 36910 ft | 578 kts | 75° |
| 2026-05-08 20:45 | -32.31536 | 167.83444 | 36913 ft | 577 kts | 75° |
| 2026-05-08 20:45 | -32.30178 | 167.92781 | 36907 ft | 578 kts | 75° |
| 2026-05-08 20:46 | -32.28817 | 168.02075 | 36911 ft | 578 kts | 75° |
| 2026-05-08 20:46 | -32.27440 | 168.11433 | 36919 ft | 578 kts | 75° |
| 2026-05-08 20:47 | -32.26062 | 168.20754 | 36926 ft | 578 kts | 75° |
| 2026-05-08 20:47 | -32.24675 | 168.30078 | 36919 ft | 578 kts | 75° |
| 2026-05-08 20:48 | -32.23288 | 168.39357 | 36923 ft | 578 kts | 75° |
| 2026-05-08 20:48 | -32.21890 | 168.48657 | 36920 ft | 578 kts | 75° |
| 2026-05-08 20:49 | -32.20485 | 168.57968 | 36917 ft | 578 kts | 75° |
| 2026-05-08 20:49 | -32.19073 | 168.67274 | 36916 ft | 578 kts | 74° |
| 2026-05-08 20:50 | -32.17663 | 168.76581 | 36925 ft | 577 kts | 73° |
| 2026-05-08 20:50 | -32.16243 | 168.85857 | 36921 ft | 577 kts | 73° |
| 2026-05-08 20:51 | -32.14810 | 168.95152 | 36924 ft | 577 kts | 73° |
| 2026-05-08 20:51 | -32.13378 | 169.04396 | 36927 ft | 577 kts | 73° |
| 2026-05-08 20:52 | -32.11933 | 169.13660 | 36940 ft | 577 kts | 73° |
| 2026-05-08 20:52 | -32.10475 | 169.22983 | 36940 ft | 577 kts | 74° |
| 2026-05-08 20:53 | -32.09018 | 169.32242 | 36949 ft | 577 kts | 73° |
| 2026-05-08 20:53 | -32.07558 | 169.41498 | 36956 ft | 576 kts | 73° |
| 2026-05-08 20:54 | -32.06088 | 169.50729 | 36953 ft | 576 kts | 73° |
| 2026-05-08 20:54 | -32.04610 | 169.59978 | 36946 ft | 576 kts | 73° |
| 2026-05-08 20:55 | -32.03129 | 169.69234 | 36931 ft | 575 kts | 73° |
| 2026-05-08 20:55 | -32.01647 | 169.78473 | 36940 ft | 575 kts | 73° |
| 2026-05-08 20:56 | -32.00150 | 169.87715 | 36940 ft | 575 kts | 73° |
| 2026-05-08 20:56 | -31.98654 | 169.96904 | 36941 ft | 575 kts | 73° |
| 2026-05-08 20:57 | -31.97144 | 170.06102 | 36943 ft | 575 kts | 73° |
| 2026-05-08 20:57 | -31.95624 | 170.15314 | 36943 ft | 576 kts | 73° |
| 2026-05-08 20:58 | -31.94094 | 170.24527 | 36942 ft | 576 kts | 73° |
| 2026-05-08 20:58 | -31.92542 | 170.33801 | 36944 ft | 576 kts | 73° |
| 2026-05-08 20:58 | -31.91772 | 170.38414 | 37088 ft | 576 kts | 73° |
| 2026-05-08 20:59 | -31.91017 | 170.43015 | 36932 ft | 577 kts | 73° |
| 2026-05-08 20:59 | -31.89496 | 170.52251 | 36895 ft | 577 kts | 73° |
| 2026-05-08 20:59 | -31.88712 | 170.56868 | 37050 ft | 577 kts | 73° |
| 2026-05-08 21:00 | -31.87924 | 170.61482 | 36991 ft | 576 kts | 73° |
| 2026-05-08 21:00 | -31.86357 | 170.70664 | 36949 ft | 576 kts | 72° |
| 2026-05-08 21:01 | -31.84796 | 170.79868 | 36954 ft | 577 kts | 72° |
| 2026-05-08 21:01 | -31.83222 | 170.89101 | 36949 ft | 577 kts | 72° |
| 2026-05-08 21:02 | -31.81649 | 170.98294 | 36945 ft | 577 kts | 72° |
| 2026-05-08 21:02 | -31.80057 | 171.07536 | 36945 ft | 577 kts | 72° |
| 2026-05-08 21:03 | -31.78471 | 171.16701 | 36958 ft | 578 kts | 72° |
| 2026-05-08 21:03 | -31.76860 | 171.25961 | 36967 ft | 580 kts | 72° |
| 2026-05-08 21:04 | -31.75245 | 171.35223 | 36968 ft | 579 kts | 72° |
| 2026-05-08 21:04 | -31.73629 | 171.44447 | 36969 ft | 579 kts | 73° |
| 2026-05-08 21:05 | -31.72005 | 171.53667 | 36970 ft | 580 kts | 73° |
| 2026-05-08 21:05 | -31.70369 | 171.62912 | 36973 ft | 580 kts | 73° |
| 2026-05-08 21:06 | -31.68732 | 171.72162 | 36971 ft | 579 kts | 72° |
| 2026-05-08 21:06 | -31.67086 | 171.81421 | 36970 ft | 580 kts | 72° |
| 2026-05-08 21:07 | -31.65444 | 171.90604 | 36971 ft | 579 kts | 72° |
| 2026-05-08 21:07 | -31.63782 | 171.99850 | 36975 ft | 578 kts | 72° |
| 2026-05-08 21:08 | -31.62124 | 172.09003 | 36969 ft | 579 kts | 72° |
| 2026-05-08 21:08 | -31.60457 | 172.18187 | 36973 ft | 579 kts | 72° |
| 2026-05-08 21:09 | -31.58772 | 172.27432 | 36975 ft | 579 kts | 72° |
| 2026-05-08 21:09 | -31.57085 | 172.36635 | 36969 ft | 579 kts | 72° |
| 2026-05-08 21:10 | -31.55398 | 172.45813 | 36975 ft | 579 kts | 72° |
| 2026-05-08 21:10 | -31.53703 | 172.54980 | 36967 ft | 579 kts | 72° |
| 2026-05-08 21:11 | -31.51992 | 172.64217 | 36975 ft | 579 kts | 72° |
| 2026-05-08 21:11 | -31.50299 | 172.73351 | 36964 ft | 578 kts | 72° |
| 2026-05-08 21:12 | -31.48588 | 172.82532 | 36962 ft | 579 kts | 72° |
| 2026-05-08 21:12 | -31.46863 | 172.91724 | 36960 ft | 579 kts | 72° |
| 2026-05-08 21:13 | -31.45126 | 173.00920 | 36954 ft | 579 kts | 72° |
| 2026-05-08 21:13 | -31.43396 | 173.10060 | 36960 ft | 580 kts | 72° |
| 2026-05-08 21:14 | -31.41650 | 173.19246 | 36964 ft | 580 kts | 72° |
| 2026-05-08 21:14 | -31.39895 | 173.28438 | 36959 ft | 579 kts | 72° |
| 2026-05-08 21:15 | -31.38135 | 173.37605 | 36959 ft | 580 kts | 72° |
| 2026-05-08 21:15 | -31.36377 | 173.46751 | 36959 ft | 579 kts | 72° |
| 2026-05-08 21:16 | -31.34611 | 173.55881 | 36957 ft | 579 kts | 72° |
| 2026-05-08 21:16 | -31.32824 | 173.65070 | 36960 ft | 580 kts | 72° |
| 2026-05-08 21:17 | -31.31042 | 173.74268 | 36956 ft | 580 kts | 72° |
| 2026-05-08 21:17 | -31.29263 | 173.83401 | 36958 ft | 579 kts | 72° |
| 2026-05-08 21:18 | -31.27462 | 173.92577 | 36957 ft | 579 kts | 72° |
| 2026-05-08 21:18 | -31.25666 | 174.01677 | 36961 ft | 580 kts | 72° |
| 2026-05-08 21:19 | -31.23855 | 174.10828 | 36959 ft | 579 kts | 72° |
| 2026-05-08 21:19 | -31.22030 | 174.20004 | 36963 ft | 579 kts | 72° |
| 2026-05-08 21:20 | -31.20204 | 174.29132 | 36963 ft | 580 kts | 72° |
| 2026-05-08 21:20 | -31.18377 | 174.38264 | 36962 ft | 578 kts | 72° |
| 2026-05-08 21:21 | -31.16542 | 174.47386 | 36966 ft | 578 kts | 72° |
| 2026-05-08 21:21 | -31.14707 | 174.56467 | 36964 ft | 578 kts | 72° |
| 2026-05-08 21:22 | -31.12869 | 174.65538 | 36963 ft | 577 kts | 71° |
| 2026-05-08 21:22 | -31.11024 | 174.74641 | 36962 ft | 577 kts | 71° |
| 2026-05-08 21:23 | -31.09179 | 174.83694 | 36964 ft | 576 kts | 71° |
| 2026-05-08 21:23 | -31.07327 | 174.92729 | 36966 ft | 576 kts | 71° |
| 2026-05-08 21:24 | -31.05453 | 175.01823 | 36970 ft | 576 kts | 71° |
| 2026-05-08 21:24 | -31.03591 | 175.10828 | 36969 ft | 576 kts | 71° |
| 2026-05-08 21:25 | -31.01705 | 175.19922 | 36970 ft | 575 kts | 71° |
| 2026-05-08 21:25 | -30.99829 | 175.28903 | 36973 ft | 576 kts | 72° |
| 2026-05-08 21:26 | -30.97927 | 175.37997 | 36973 ft | 576 kts | 72° |
| 2026-05-08 21:26 | -30.96027 | 175.47034 | 36975 ft | 576 kts | 72° |
| 2026-05-08 21:27 | -30.94118 | 175.56061 | 36980 ft | 576 kts | 72° |
| 2026-05-08 21:27 | -30.92199 | 175.65082 | 36979 ft | 576 kts | 71° |
| 2026-05-08 21:28 | -30.90289 | 175.74063 | 36982 ft | 575 kts | 71° |
| 2026-05-08 21:28 | -30.88276 | 175.83041 | 36990 ft | 574 kts | 70° |
| 2026-05-08 21:29 | -30.86204 | 175.91968 | 36984 ft | 574 kts | 70° |
| 2026-05-08 21:29 | -30.84128 | 176.00925 | 36986 ft | 575 kts | 71° |
| 2026-05-08 21:30 | -30.82060 | 176.09868 | 36986 ft | 575 kts | 70° |
| 2026-05-08 21:30 | -30.79987 | 176.18813 | 36985 ft | 575 kts | 70° |
| 2026-05-08 21:31 | -30.77911 | 176.27754 | 36979 ft | 574 kts | 71° |
| 2026-05-08 21:31 | -30.75825 | 176.36703 | 36988 ft | 574 kts | 71° |
| 2026-05-08 21:32 | -30.73737 | 176.45627 | 36979 ft | 574 kts | 71° |
| 2026-05-08 21:32 | -30.71632 | 176.54601 | 36980 ft | 574 kts | 71° |
| 2026-05-08 21:33 | -30.69534 | 176.63504 | 36984 ft | 574 kts | 71° |
| 2026-05-08 21:33 | -30.67441 | 176.72392 | 36979 ft | 574 kts | 70° |
| 2026-05-08 21:34 | -30.65336 | 176.81316 | 36986 ft | 573 kts | 70° |
| 2026-05-08 21:34 | -30.63216 | 176.90237 | 36984 ft | 574 kts | 70° |
| 2026-05-08 21:35 | -30.61101 | 176.99094 | 36986 ft | 574 kts | 71° |
| 2026-05-08 21:35 | -30.58962 | 177.08037 | 36979 ft | 574 kts | 70° |
| 2026-05-08 21:36 | -30.56835 | 177.16888 | 36982 ft | 573 kts | 71° |
| 2026-05-08 21:36 | -30.54690 | 177.25766 | 36974 ft | 574 kts | 71° |
| 2026-05-08 21:37 | -30.52535 | 177.34686 | 36979 ft | 574 kts | 71° |
| 2026-05-08 21:37 | -30.50377 | 177.43573 | 36985 ft | 575 kts | 71° |
| 2026-05-08 21:38 | -30.48215 | 177.52463 | 36990 ft | 575 kts | 71° |
| 2026-05-08 21:38 | -30.46051 | 177.61333 | 36994 ft | 574 kts | 71° |
| 2026-05-08 21:39 | -30.43887 | 177.70189 | 36994 ft | 573 kts | 71° |
| 2026-05-08 21:39 | -30.41726 | 177.79022 | 36991 ft | 573 kts | 71° |
| 2026-05-08 21:40 | -30.39551 | 177.87854 | 36991 ft | 573 kts | 71° |
| 2026-05-08 21:40 | -30.37365 | 177.96693 | 36994 ft | 572 kts | 71° |
| 2026-05-08 21:41 | -30.34075 | 178.09949 | 37002 ft | 571 kts | 71° |
| 2026-05-08 21:41 | -30.32252 | 178.17261 | 37001 ft | 570 kts | 71° |
| 2026-05-08 21:42 | -30.29692 | 178.27493 | 37006 ft | 570 kts | 71° |
| 2026-05-08 21:42 | -30.27490 | 178.36278 | 37005 ft | 570 kts | 71° |
| 2026-05-08 21:43 | -30.25271 | 178.45077 | 36999 ft | 570 kts | 71° |
| 2026-05-08 21:43 | -30.23080 | 178.53775 | 36995 ft | 569 kts | 71° |
| 2026-05-08 21:44 | -30.20856 | 178.62556 | 36990 ft | 569 kts | 71° |
| 2026-05-08 21:44 | -30.18638 | 178.71292 | 36993 ft | 569 kts | 71° |
| 2026-05-08 21:45 | -30.16410 | 178.80075 | 36996 ft | 568 kts | 71° |
| 2026-05-08 21:45 | -30.14184 | 178.88768 | 36998 ft | 568 kts | 71° |
| 2026-05-08 21:46 | -30.11950 | 178.97467 | 37001 ft | 567 kts | 71° |
| 2026-05-08 21:46 | -30.09685 | 179.06209 | 36997 ft | 568 kts | 71° |
| 2026-05-08 21:47 | -30.07445 | 179.14867 | 36996 ft | 568 kts | 71° |
| 2026-05-08 21:47 | -30.05212 | 179.23605 | 36997 ft | 568 kts | 72° |
| 2026-05-08 21:48 | -30.02977 | 179.32321 | 36996 ft | 567 kts | 71° |
| 2026-05-08 21:48 | -30.00730 | 179.40979 | 36998 ft | 567 kts | 71° |
| 2026-05-08 21:49 | -29.98475 | 179.49643 | 36996 ft | 566 kts | 72° |
| 2026-05-08 21:49 | -29.96203 | 179.58315 | 37001 ft | 566 kts | 71° |
| 2026-05-08 21:50 | -29.93941 | 179.66945 | 36997 ft | 564 kts | 71° |
| 2026-05-08 21:50 | -29.91681 | 179.75572 | 37003 ft | 564 kts | 71° |
| 2026-05-08 21:51 | -29.89404 | 179.84204 | 36997 ft | 563 kts | 71° |
| 2026-05-08 21:51 | -29.87105 | 179.92758 | 37000 ft | 562 kts | 71° |
| 2026-05-08 21:52 | -29.84795 | -179.98613 | 37003 ft | 562 kts | 71° |
| 2026-05-08 21:52 | -29.82513 | -179.90065 | 36997 ft | 561 kts | 72° |
| 2026-05-08 21:53 | -29.80231 | -179.81519 | 37004 ft | 561 kts | 72° |
| 2026-05-08 21:53 | -29.77939 | -179.72961 | 36995 ft | 561 kts | 72° |
| 2026-05-08 21:54 | -29.75636 | -179.64381 | 37000 ft | 561 kts | 72° |
| 2026-05-08 21:54 | -29.73346 | -179.55879 | 36996 ft | 560 kts | 71° |
| 2026-05-08 21:55 | -29.71044 | -179.47351 | 36985 ft | 558 kts | 71° |
| 2026-05-08 21:56 | -29.67602 | -179.34596 | 36989 ft | 557 kts | 71° |
| 2026-05-08 21:56 | -29.65307 | -179.26154 | 36991 ft | 557 kts | 71° |
| 2026-05-08 21:57 | -29.62991 | -179.17662 | 36989 ft | 556 kts | 71° |
| 2026-05-08 21:57 | -29.60689 | -179.09239 | 36981 ft | 556 kts | 71° |
| 2026-05-08 21:58 | -29.58377 | -179.00809 | 36984 ft | 555 kts | 72° |
| 2026-05-08 21:58 | -29.56064 | -178.92403 | 36989 ft | 554 kts | 71° |
| 2026-05-08 21:59 | -29.53735 | -178.83957 | 36983 ft | 553 kts | 71° |
| 2026-05-08 21:59 | -29.51420 | -178.75592 | 36980 ft | 552 kts | 72° |
| 2026-05-08 22:00 | -29.49096 | -178.67207 | 36980 ft | 551 kts | 71° |
| 2026-05-08 22:00 | -29.46782 | -178.58884 | 36977 ft | 551 kts | 72° |
| 2026-05-08 22:01 | -29.44464 | -178.50568 | 36979 ft | 550 kts | 72° |
| 2026-05-08 22:01 | -29.42135 | -178.42215 | 36980 ft | 549 kts | 71° |
| 2026-05-08 22:02 | -29.39812 | -178.33887 | 36977 ft | 548 kts | 71° |
| 2026-05-08 22:02 | -29.37493 | -178.25632 | 36975 ft | 548 kts | 71° |
| 2026-05-08 22:03 | -29.35156 | -178.17342 | 36970 ft | 547 kts | 71° |
| 2026-05-08 22:03 | -29.32818 | -178.09073 | 36970 ft | 546 kts | 71° |
| 2026-05-08 22:04 | -29.30498 | -178.00876 | 36967 ft | 545 kts | 71° |
| 2026-05-08 22:04 | -29.28162 | -177.92650 | 36960 ft | 544 kts | 71° |
| 2026-05-08 22:05 | -29.25818 | -177.84418 | 36959 ft | 544 kts | 71° |
| 2026-05-08 22:05 | -29.23481 | -177.76234 | 36955 ft | 543 kts | 71° |
| 2026-05-08 22:06 | -29.21127 | -177.68012 | 36958 ft | 544 kts | 72° |
| 2026-05-08 22:06 | -29.18784 | -177.59850 | 36949 ft | 543 kts | 72° |
| 2026-05-08 22:07 | -29.16421 | -177.51640 | 36953 ft | 543 kts | 72° |
| 2026-05-08 22:07 | -29.14080 | -177.43515 | 36950 ft | 542 kts | 72° |
| 2026-05-08 22:08 | -29.11708 | -177.35315 | 36952 ft | 542 kts | 71° |
| 2026-05-08 22:08 | -29.09364 | -177.27199 | 36948 ft | 541 kts | 71° |
| 2026-05-08 22:09 | -29.07009 | -177.19075 | 36942 ft | 541 kts | 71° |
| 2026-05-08 22:09 | -29.04646 | -177.10960 | 36941 ft | 540 kts | 71° |
| 2026-05-08 22:10 | -29.02267 | -177.02815 | 36947 ft | 539 kts | 71° |
| 2026-05-08 22:10 | -28.99901 | -176.94736 | 36943 ft | 539 kts | 71° |
| 2026-05-08 22:11 | -28.97525 | -176.86644 | 36936 ft | 539 kts | 71° |
| 2026-05-08 22:11 | -28.95144 | -176.78557 | 36920 ft | 538 kts | 71° |
| 2026-05-08 22:12 | -28.92756 | -176.70468 | 36921 ft | 537 kts | 71° |
| 2026-05-08 22:12 | -28.90385 | -176.62451 | 36921 ft | 537 kts | 71° |
| 2026-05-08 22:13 | -28.87974 | -176.54398 | 36919 ft | 537 kts | 71° |
| 2026-05-08 22:13 | -28.85563 | -176.46382 | 36916 ft | 536 kts | 71° |
| 2026-05-08 22:14 | -28.83160 | -176.38353 | 36916 ft | 537 kts | 71° |
| 2026-05-08 22:14 | -28.80763 | -176.30322 | 36913 ft | 537 kts | 71° |
| 2026-05-08 22:15 | -28.78365 | -176.22281 | 36913 ft | 536 kts | 71° |
| 2026-05-08 22:15 | -28.75977 | -176.14316 | 36910 ft | 535 kts | 71° |
| 2026-05-08 22:16 | -28.73573 | -176.06328 | 36908 ft | 535 kts | 71° |
| 2026-05-08 22:16 | -28.71156 | -175.98317 | 36902 ft | 534 kts | 71° |
| 2026-05-08 22:17 | -28.68753 | -175.90372 | 36890 ft | 534 kts | 71° |
| 2026-05-08 22:17 | -28.66334 | -175.82390 | 36887 ft | 533 kts | 71° |
| 2026-05-08 22:18 | -28.63928 | -175.74472 | 36887 ft | 532 kts | 71° |
| 2026-05-08 22:18 | -28.61514 | -175.66547 | 36887 ft | 532 kts | 71° |
| 2026-05-08 22:19 | -28.59091 | -175.58612 | 36883 ft | 533 kts | 71° |
| 2026-05-08 22:19 | -28.56656 | -175.50659 | 36885 ft | 532 kts | 71° |
| 2026-05-08 22:20 | -28.54227 | -175.42746 | 36884 ft | 532 kts | 71° |
| 2026-05-08 22:20 | -28.51794 | -175.34839 | 36873 ft | 531 kts | 71° |
| 2026-05-08 22:21 | -28.49358 | -175.26923 | 36866 ft | 531 kts | 71° |
| 2026-05-08 22:21 | -28.46924 | -175.19035 | 36867 ft | 530 kts | 71° |
| 2026-05-08 22:22 | -28.44489 | -175.11195 | 36867 ft | 529 kts | 71° |
| 2026-05-08 22:22 | -28.42037 | -175.03336 | 36866 ft | 528 kts | 71° |
| 2026-05-08 22:23 | -28.39607 | -174.95493 | 37151 ft | 528 kts | 71° |
| 2026-05-08 22:23 | -28.38397 | -174.91559 | 37369 ft | 527 kts | 71° |
| 2026-05-08 22:23 | -28.37187 | -174.87643 | 37563 ft | 526 kts | 71° |
| 2026-05-08 22:23 | -28.35985 | -174.83771 | 37745 ft | 525 kts | 71° |
| 2026-05-08 22:24 | -28.34768 | -174.79862 | 37897 ft | 525 kts | 71° |
| 2026-05-08 22:24 | -28.33547 | -174.75955 | 38021 ft | 526 kts | 71° |
| 2026-05-08 22:24 | -28.32325 | -174.72054 | 38138 ft | 526 kts | 71° |
| 2026-05-08 22:24 | -28.31112 | -174.68185 | 38256 ft | 526 kts | 71° |
| 2026-05-08 22:25 | -28.29888 | -174.64284 | 38384 ft | 526 kts | 71° |
| 2026-05-08 22:25 | -28.28654 | -174.60358 | 38527 ft | 525 kts | 71° |
| 2026-05-08 22:25 | -28.27440 | -174.56497 | 38667 ft | 525 kts | 70° |
| 2026-05-08 22:25 | -28.26210 | -174.52594 | 38804 ft | 525 kts | 70° |
| 2026-05-08 22:26 | -28.24979 | -174.48691 | 38838 ft | 526 kts | 70° |
| 2026-05-08 22:26 | -28.22515 | -174.40900 | 38855 ft | 527 kts | 70° |
| 2026-05-08 22:27 | -28.20051 | -174.33119 | 38847 ft | 526 kts | 70° |
| 2026-05-08 22:27 | -28.17591 | -174.25333 | 38847 ft | 526 kts | 70° |
| 2026-05-08 22:28 | -28.15128 | -174.17572 | 38843 ft | 527 kts | 70° |
| 2026-05-08 22:28 | -28.12650 | -174.09793 | 38842 ft | 526 kts | 70° |
| 2026-05-08 22:29 | -28.10158 | -174.01997 | 38839 ft | 527 kts | 70° |
| 2026-05-08 22:29 | -28.07673 | -173.94241 | 38838 ft | 527 kts | 70° |
| 2026-05-08 22:30 | -28.05173 | -173.86452 | 38825 ft | 528 kts | 70° |
| 2026-05-08 22:30 | -28.02670 | -173.78670 | 38815 ft | 528 kts | 70° |
| 2026-05-08 22:31 | -28.00151 | -173.70860 | 38806 ft | 529 kts | 70° |
| 2026-05-08 22:31 | -27.97626 | -173.63046 | 38805 ft | 530 kts | 70° |
| 2026-05-08 22:32 | -27.95113 | -173.55281 | 38808 ft | 529 kts | 70° |
| 2026-05-08 22:32 | -27.92580 | -173.47475 | 38801 ft | 529 kts | 70° |
| 2026-05-08 22:33 | -27.90055 | -173.39716 | 38798 ft | 528 kts | 70° |
| 2026-05-08 22:33 | -27.87504 | -173.31969 | 38795 ft | 528 kts | 70° |
| 2026-05-08 22:34 | -27.84944 | -173.24179 | 38793 ft | 528 kts | 70° |
| 2026-05-08 22:34 | -27.82405 | -173.16435 | 38793 ft | 527 kts | 70° |
| 2026-05-08 22:35 | -27.79864 | -173.08691 | 38791 ft | 528 kts | 70° |
| 2026-05-08 22:35 | -27.77326 | -173.00970 | 38790 ft | 528 kts | 70° |
| 2026-05-08 22:36 | -27.74771 | -172.93219 | 38794 ft | 528 kts | 70° |
| 2026-05-08 22:36 | -27.72212 | -172.85469 | 38796 ft | 528 kts | 70° |
| 2026-05-08 22:37 | -27.69643 | -172.77708 | 38791 ft | 528 kts | 70° |
| 2026-05-08 22:37 | -27.67079 | -172.69975 | 38793 ft | 528 kts | 70° |
| 2026-05-08 22:38 | -27.64527 | -172.62299 | 38790 ft | 528 kts | 70° |
| 2026-05-08 22:38 | -27.61954 | -172.54575 | 38790 ft | 528 kts | 70° |
| 2026-05-08 22:39 | -27.59369 | -172.46829 | 38792 ft | 527 kts | 70° |
| 2026-05-08 22:39 | -27.56792 | -172.39125 | 38788 ft | 526 kts | 70° |
| 2026-05-08 22:40 | -27.54226 | -172.31465 | 38784 ft | 526 kts | 70° |
| 2026-05-08 22:40 | -27.51651 | -172.23767 | 38778 ft | 527 kts | 70° |
| 2026-05-08 22:41 | -27.49060 | -172.16052 | 38784 ft | 527 kts | 70° |
| 2026-05-08 22:41 | -27.46470 | -172.08368 | 38782 ft | 526 kts | 70° |
| 2026-05-08 22:42 | -27.43881 | -172.00713 | 38780 ft | 526 kts | 70° |
| 2026-05-08 22:42 | -27.41291 | -171.93069 | 38781 ft | 526 kts | 70° |
| 2026-05-08 22:43 | -27.38691 | -171.85410 | 38779 ft | 525 kts | 70° |
| 2026-05-08 22:43 | -27.36083 | -171.77743 | 38778 ft | 525 kts | 70° |
| 2026-05-08 22:44 | -27.33479 | -171.70106 | 38773 ft | 524 kts | 70° |
| 2026-05-08 22:44 | -27.30875 | -171.62480 | 38774 ft | 524 kts | 70° |
| 2026-05-08 22:45 | -27.28260 | -171.54840 | 38771 ft | 524 kts | 70° |
| 2026-05-08 22:45 | -27.25650 | -171.47229 | 38769 ft | 524 kts | 70° |
| 2026-05-08 22:46 | -27.23021 | -171.39586 | 38768 ft | 524 kts | 70° |
| 2026-05-08 22:46 | -27.20405 | -171.31985 | 38769 ft | 524 kts | 70° |
| 2026-05-08 22:47 | -27.17789 | -171.24371 | 38769 ft | 523 kts | 69° |
| 2026-05-08 22:47 | -27.15169 | -171.16782 | 38769 ft | 523 kts | 70° |
| 2026-05-08 22:48 | -27.12552 | -171.09222 | 38773 ft | 523 kts | 69° |
| 2026-05-08 22:48 | -27.09919 | -171.01640 | 38776 ft | 523 kts | 69° |
| 2026-05-08 22:49 | -27.07273 | -170.94040 | 38778 ft | 523 kts | 69° |
| 2026-05-08 22:49 | -27.03308 | -170.82677 | 38772 ft | 523 kts | 69° |
| 2026-05-08 22:50 | -27.00659 | -170.75101 | 38775 ft | 524 kts | 70° |
| 2026-05-08 22:50 | -26.98008 | -170.67532 | 38777 ft | 523 kts | 69° |
| 2026-05-08 22:51 | -26.95346 | -170.59953 | 38779 ft | 524 kts | 69° |
| 2026-05-08 22:51 | -26.92674 | -170.52365 | 38774 ft | 523 kts | 69° |
| 2026-05-08 22:52 | -26.90013 | -170.44823 | 38778 ft | 522 kts | 69° |
| 2026-05-08 22:52 | -26.87330 | -170.37309 | 38777 ft | 523 kts | 69° |
| 2026-05-08 22:53 | -26.84635 | -170.29750 | 38774 ft | 523 kts | 69° |
| 2026-05-08 22:53 | -26.81960 | -170.22209 | 38777 ft | 523 kts | 69° |
| 2026-05-08 22:54 | -26.79275 | -170.14653 | 38787 ft | 523 kts | 69° |
| 2026-05-08 22:54 | -26.76597 | -170.07161 | 38787 ft | 523 kts | 69° |
| 2026-05-08 22:55 | -26.73889 | -169.99583 | 38791 ft | 523 kts | 68° |
| 2026-05-08 22:55 | -26.71228 | -169.92075 | 38788 ft | 522 kts | 69° |
| 2026-05-08 22:56 | -26.68547 | -169.84543 | 38795 ft | 522 kts | 69° |
| 2026-05-08 22:56 | -26.65856 | -169.77025 | 38796 ft | 522 kts | 69° |
| 2026-05-08 22:57 | -26.63162 | -169.69524 | 38795 ft | 522 kts | 69° |
| 2026-05-08 22:57 | -26.60464 | -169.62032 | 38795 ft | 521 kts | 68° |
| 2026-05-08 22:58 | -26.57768 | -169.54556 | 38802 ft | 521 kts | 68° |
| 2026-05-08 22:58 | -26.55065 | -169.47081 | 38809 ft | 521 kts | 68° |
| 2026-05-08 22:59 | -26.52342 | -169.39561 | 38803 ft | 522 kts | 68° |
| 2026-05-08 22:59 | -26.49636 | -169.32098 | 38804 ft | 522 kts | 68° |
| 2026-05-08 23:00 | -26.46923 | -169.24602 | 38813 ft | 521 kts | 68° |
| 2026-05-08 23:00 | -26.44222 | -169.17171 | 38817 ft | 521 kts | 68° |
| 2026-05-08 23:01 | -26.41490 | -169.09679 | 38818 ft | 521 kts | 68° |
| 2026-05-08 23:01 | -26.38776 | -169.02255 | 38824 ft | 520 kts | 68° |
| 2026-05-08 23:02 | -26.36052 | -168.94821 | 38830 ft | 519 kts | 68° |
| 2026-05-08 23:02 | -26.33312 | -168.87355 | 38837 ft | 519 kts | 67° |
| 2026-05-08 23:03 | -26.30593 | -168.79962 | 38841 ft | 519 kts | 67° |
| 2026-05-08 23:03 | -26.27854 | -168.72528 | 38839 ft | 519 kts | 67° |
| 2026-05-08 23:04 | -26.25114 | -168.65100 | 38848 ft | 518 kts | 67° |
| 2026-05-08 23:04 | -26.22845 | -168.58966 | 38848 ft | 518 kts | 67° |
| 2026-05-08 23:05 | -26.19644 | -168.50323 | 38845 ft | 517 kts | 67° |
| 2026-05-08 23:05 | -26.17831 | -168.45438 | 38853 ft | 517 kts | 67° |
| 2026-05-08 23:06 | -26.14178 | -168.35612 | 38856 ft | 516 kts | 67° |
| 2026-05-08 23:06 | -26.11446 | -168.28253 | 38868 ft | 516 kts | 66° |
| 2026-05-08 23:07 | -26.08714 | -168.20909 | 38866 ft | 516 kts | 66° |
| 2026-05-08 23:07 | -26.05980 | -168.13586 | 38883 ft | 514 kts | 66° |
| 2026-05-08 23:08 | -26.03244 | -168.06276 | 38877 ft | 513 kts | 66° |
| 2026-05-08 23:08 | -26.00496 | -167.98953 | 38878 ft | 513 kts | 66° |
| 2026-05-08 23:09 | -25.97752 | -167.91653 | 38886 ft | 512 kts | 66° |
| 2026-05-08 23:09 | -25.95008 | -167.84366 | 38895 ft | 512 kts | 66° |
| 2026-05-08 23:10 | -25.92269 | -167.77110 | 38898 ft | 512 kts | 66° |
| 2026-05-08 23:10 | -25.89525 | -167.69849 | 38900 ft | 513 kts | 66° |
| 2026-05-08 23:11 | -25.86741 | -167.62576 | 38902 ft | 513 kts | 65° |
| 2026-05-08 23:11 | -25.83959 | -167.55301 | 38904 ft | 512 kts | 66° |
| 2026-05-08 23:12 | -25.81187 | -167.48024 | 38908 ft | 512 kts | 65° |
| 2026-05-08 23:12 | -25.78443 | -167.40820 | 38916 ft | 511 kts | 65° |
| 2026-05-08 23:13 | -25.75672 | -167.33560 | 38916 ft | 511 kts | 65° |
| 2026-05-08 23:13 | -25.72932 | -167.26347 | 38930 ft | 510 kts | 65° |
| 2026-05-08 23:14 | -25.70168 | -167.19099 | 38929 ft | 509 kts | 65° |
| 2026-05-08 23:14 | -25.67415 | -167.11917 | 38930 ft | 508 kts | 64° |
| 2026-05-08 23:15 | -25.64653 | -167.04719 | 38932 ft | 507 kts | 64° |
| 2026-05-08 23:15 | -25.61901 | -166.97563 | 38938 ft | 508 kts | 64° |
| 2026-05-08 23:16 | -25.59142 | -166.90405 | 38946 ft | 508 kts | 64° |
| 2026-05-08 23:16 | -25.56369 | -166.83225 | 38937 ft | 508 kts | 64° |
| 2026-05-08 23:17 | -25.53590 | -166.76038 | 38946 ft | 508 kts | 64° |
| 2026-05-08 23:17 | -25.50803 | -166.68845 | 38939 ft | 509 kts | 64° |
| 2026-05-08 23:18 | -25.48016 | -166.61661 | 38937 ft | 509 kts | 64° |
| 2026-05-08 23:18 | -25.45227 | -166.54485 | 38945 ft | 509 kts | 63° |
| 2026-05-08 23:19 | -25.42438 | -166.47325 | 38940 ft | 508 kts | 63° |
| 2026-05-08 23:19 | -25.39657 | -166.40195 | 38950 ft | 507 kts | 63° |
| 2026-05-08 23:20 | -25.36871 | -166.33058 | 38948 ft | 507 kts | 63° |
| 2026-05-08 23:20 | -25.34089 | -166.25915 | 38960 ft | 508 kts | 63° |
| 2026-05-08 23:21 | -25.31300 | -166.18779 | 38950 ft | 507 kts | 63° |
| 2026-05-08 23:21 | -25.28491 | -166.11618 | 38964 ft | 506 kts | 62° |
| 2026-05-08 23:22 | -25.25699 | -166.04515 | 38965 ft | 505 kts | 62° |
| 2026-05-08 23:22 | -25.22910 | -165.97453 | 38961 ft | 506 kts | 62° |
| 2026-05-08 23:23 | -25.20095 | -165.90320 | 38961 ft | 506 kts | 62° |
| 2026-05-08 23:23 | -25.17299 | -165.83249 | 38973 ft | 506 kts | 62° |
| 2026-05-08 23:24 | -25.14500 | -165.76176 | 38967 ft | 504 kts | 61° |
| 2026-05-08 23:24 | -25.11676 | -165.69069 | 38971 ft | 505 kts | 61° |
| 2026-05-08 23:25 | -25.08866 | -165.61997 | 38978 ft | 506 kts | 61° |
| 2026-05-08 23:25 | -25.06058 | -165.54944 | 38981 ft | 504 kts | 61° |
| 2026-05-08 23:26 | -25.03250 | -165.47899 | 38980 ft | 504 kts | 61° |
| 2026-05-08 23:26 | -25.00427 | -165.40839 | 38984 ft | 503 kts | 61° |
| 2026-05-08 23:27 | -24.97615 | -165.33813 | 38984 ft | 502 kts | 60° |
| 2026-05-08 23:27 | -24.94807 | -165.26775 | 38987 ft | 500 kts | 60° |
| 2026-05-08 23:28 | -24.92014 | -165.19814 | 38985 ft | 500 kts | 60° |
| 2026-05-08 23:28 | -24.89201 | -165.12852 | 38986 ft | 499 kts | 59° |
| 2026-05-08 23:29 | -24.86339 | -165.05853 | 38991 ft | 499 kts | 59° |
| 2026-05-08 23:29 | -24.83531 | -164.98910 | 38990 ft | 499 kts | 60° |
| 2026-05-08 23:30 | -24.80749 | -164.91960 | 38992 ft | 499 kts | 59° |
| 2026-05-08 23:30 | -24.77943 | -164.84985 | 38996 ft | 498 kts | 59° |
| 2026-05-08 23:31 | -24.75145 | -164.78062 | 38995 ft | 499 kts | 59° |
| 2026-05-08 23:31 | -24.72326 | -164.71114 | 38992 ft | 498 kts | 59° |
| 2026-05-08 23:32 | -24.69497 | -164.64159 | 39007 ft | 499 kts | 59° |
| 2026-05-08 23:32 | -24.66690 | -164.57259 | 39005 ft | 497 kts | 59° |
| 2026-05-08 23:33 | -24.63854 | -164.50305 | 39003 ft | 499 kts | 59° |
| 2026-05-08 23:33 | -24.61031 | -164.43398 | 39009 ft | 499 kts | 59° |
| 2026-05-08 23:34 | -24.58210 | -164.36494 | 39007 ft | 497 kts | 59° |
| 2026-05-08 23:34 | -24.55383 | -164.29572 | 39012 ft | 498 kts | 59° |
| 2026-05-08 23:35 | -24.52548 | -164.22623 | 39018 ft | 498 kts | 59° |
| 2026-05-08 23:35 | -24.49719 | -164.15726 | 39013 ft | 498 kts | 59° |
| 2026-05-08 23:36 | -24.46861 | -164.08777 | 39021 ft | 499 kts | 59° |
| 2026-05-08 23:36 | -24.44022 | -164.01889 | 39022 ft | 498 kts | 59° |
| 2026-05-08 23:37 | -24.41177 | -163.94998 | 39023 ft | 498 kts | 59° |
| 2026-05-08 23:37 | -24.38306 | -163.88052 | 39024 ft | 498 kts | 59° |
| 2026-05-08 23:38 | -24.35463 | -163.81190 | 39021 ft | 498 kts | 59° |
| 2026-05-08 23:38 | -24.32597 | -163.74286 | 39020 ft | 499 kts | 59° |
| 2026-05-08 23:39 | -24.29728 | -163.67375 | 39027 ft | 499 kts | 59° |
| 2026-05-08 23:39 | -24.26865 | -163.60494 | 39036 ft | 498 kts | 59° |
| 2026-05-08 23:40 | -24.24001 | -163.53619 | 39029 ft | 497 kts | 59° |
| 2026-05-08 23:40 | -24.21127 | -163.46735 | 39033 ft | 498 kts | 59° |
| 2026-05-08 23:41 | -24.18252 | -163.39857 | 39022 ft | 499 kts | 59° |
| 2026-05-08 23:41 | -24.15365 | -163.32953 | 39030 ft | 499 kts | 58° |
| 2026-05-08 23:42 | -24.12490 | -163.26051 | 39031 ft | 499 kts | 58° |
| 2026-05-08 23:42 | -24.09619 | -163.19192 | 39035 ft | 498 kts | 58° |
| 2026-05-08 23:43 | -24.06744 | -163.12352 | 39027 ft | 498 kts | 58° |
| 2026-05-08 23:43 | -24.03860 | -163.05496 | 39028 ft | 497 kts | 58° |
| 2026-05-08 23:44 | -24.00971 | -162.98647 | 39029 ft | 497 kts | 58° |
| 2026-05-08 23:44 | -23.98075 | -162.91791 | 39021 ft | 497 kts | 58° |
| 2026-05-08 23:45 | -23.95165 | -162.84920 | 39024 ft | 498 kts | 58° |
| 2026-05-08 23:45 | -23.92281 | -162.78108 | 39029 ft | 498 kts | 58° |
| 2026-05-08 23:46 | -23.89368 | -162.71249 | 39023 ft | 498 kts | 58° |
| 2026-05-08 23:46 | -23.86445 | -162.64442 | 39029 ft | 498 kts | 58° |
| 2026-05-08 23:47 | -23.83496 | -162.57561 | 39026 ft | 499 kts | 58° |
| 2026-05-08 23:47 | -23.80569 | -162.50711 | 39032 ft | 500 kts | 58° |
| 2026-05-08 23:48 | -23.77638 | -162.43846 | 39030 ft | 499 kts | 58° |
| 2026-05-08 23:48 | -23.74718 | -162.37015 | 39034 ft | 499 kts | 58° |
| 2026-05-08 23:49 | -23.71792 | -162.30156 | 39035 ft | 499 kts | 58° |
| 2026-05-08 23:49 | -23.68869 | -162.23306 | 39037 ft | 499 kts | 58° |
| 2026-05-08 23:50 | -23.65950 | -162.16496 | 39031 ft | 500 kts | 58° |
| 2026-05-08 23:50 | -23.62989 | -162.09602 | 39038 ft | 499 kts | 58° |
| 2026-05-08 23:51 | -23.60062 | -162.02799 | 39039 ft | 498 kts | 58° |
| 2026-05-08 23:51 | -23.57112 | -161.95961 | 39039 ft | 499 kts | 58° |
| 2026-05-08 23:52 | -23.54158 | -161.89131 | 39039 ft | 502 kts | 58° |
| 2026-05-08 23:52 | -23.51183 | -161.82250 | 39043 ft | 500 kts | 58° |
| 2026-05-08 23:53 | -23.48233 | -161.75435 | 39038 ft | 501 kts | 58° |
| 2026-05-08 23:53 | -23.45261 | -161.68584 | 39041 ft | 500 kts | 58° |
| 2026-05-08 23:54 | -23.42286 | -161.61742 | 39042 ft | 500 kts | 58° |
| 2026-05-08 23:55 | -23.37845 | -161.51538 | 39038 ft | 501 kts | 58° |
| 2026-05-08 23:55 | -23.34853 | -161.44672 | 39042 ft | 499 kts | 58° |
| 2026-05-08 23:56 | -23.31889 | -161.37883 | 39040 ft | 500 kts | 58° |
| 2026-05-08 23:56 | -23.28914 | -161.31065 | 39041 ft | 499 kts | 58° |
| 2026-05-08 23:57 | -23.25962 | -161.24287 | 39042 ft | 499 kts | 58° |
| 2026-05-08 23:57 | -23.22984 | -161.17477 | 39043 ft | 500 kts | 58° |
| 2026-05-08 23:58 | -23.20009 | -161.10698 | 39038 ft | 500 kts | 58° |
| 2026-05-08 23:58 | -23.17008 | -161.03876 | 39046 ft | 499 kts | 58° |
| 2026-05-08 23:59 | -23.14029 | -160.97107 | 39040 ft | 499 kts | 58° |
| 2026-05-08 23:59 | -23.11023 | -160.90294 | 39047 ft | 501 kts | 58° |
| 2026-05-09 00:00 | -23.08026 | -160.83507 | 39045 ft | 501 kts | 58° |
| 2026-05-09 00:00 | -23.05006 | -160.76678 | 39046 ft | 501 kts | 58° |
| 2026-05-09 00:01 | -23.02013 | -160.69919 | 39048 ft | 501 kts | 58° |
| 2026-05-09 00:01 | -22.98995 | -160.63115 | 39046 ft | 500 kts | 58° |
| 2026-05-09 00:02 | -22.95977 | -160.56322 | 39048 ft | 502 kts | 58° |
| 2026-05-09 00:02 | -22.92944 | -160.49504 | 39046 ft | 502 kts | 58° |
| 2026-05-09 00:03 | -22.89924 | -160.42725 | 39055 ft | 503 kts | 58° |
| 2026-05-09 00:03 | -22.86846 | -160.35886 | 39060 ft | 505 kts | 58° |
| 2026-05-09 00:04 | -22.83792 | -160.29066 | 39056 ft | 505 kts | 58° |
| 2026-05-09 00:04 | -22.80740 | -160.22229 | 39064 ft | 505 kts | 58° |
| 2026-05-09 00:05 | -22.77692 | -160.15418 | 39061 ft | 506 kts | 57° |
| 2026-05-09 00:05 | -22.74613 | -160.08551 | 39065 ft | 507 kts | 57° |
| 2026-05-09 00:06 | -22.71546 | -160.01721 | 39067 ft | 507 kts | 58° |
| 2026-05-09 00:06 | -22.68456 | -159.94853 | 39068 ft | 507 kts | 58° |
| 2026-05-09 00:07 | -22.65388 | -159.88037 | 39065 ft | 505 kts | 58° |
| 2026-05-09 00:07 | -22.62298 | -159.81186 | 39063 ft | 505 kts | 58° |
| 2026-05-09 00:08 | -22.59237 | -159.74416 | 39059 ft | 505 kts | 58° |
| 2026-05-09 00:08 | -22.56140 | -159.67569 | 39059 ft | 506 kts | 58° |
| 2026-05-09 00:09 | -22.53071 | -159.60786 | 39058 ft | 505 kts | 58° |
| 2026-05-09 00:09 | -22.49987 | -159.53987 | 39059 ft | 504 kts | 58° |
| 2026-05-09 00:10 | -22.46888 | -159.47165 | 39060 ft | 504 kts | 58° |
| 2026-05-09 00:10 | -22.43813 | -159.40407 | 39057 ft | 505 kts | 58° |
| 2026-05-09 00:11 | -22.40725 | -159.33623 | 39055 ft | 505 kts | 58° |
| 2026-05-09 00:11 | -22.37633 | -159.26804 | 39060 ft | 504 kts | 58° |
| 2026-05-09 00:12 | -22.34558 | -159.20041 | 39056 ft | 504 kts | 58° |
| 2026-05-09 00:12 | -22.31466 | -159.13271 | 39058 ft | 503 kts | 58° |
| 2026-05-09 00:13 | -22.28364 | -159.06497 | 39055 ft | 504 kts | 58° |
| 2026-05-09 00:13 | -22.25271 | -158.99756 | 39054 ft | 504 kts | 58° |
| 2026-05-09 00:14 | -22.22163 | -158.92981 | 39058 ft | 504 kts | 58° |
| 2026-05-09 00:14 | -22.19053 | -158.86214 | 39054 ft | 505 kts | 58° |
| 2026-05-09 00:15 | -22.15926 | -158.79428 | 39045 ft | 507 kts | 58° |
| 2026-05-09 00:15 | -22.12780 | -158.72607 | 39045 ft | 508 kts | 58° |
| 2026-05-09 00:16 | -22.09657 | -158.65836 | 39053 ft | 508 kts | 58° |
| 2026-05-09 00:16 | -22.06514 | -158.59038 | 39045 ft | 508 kts | 58° |
| 2026-05-09 00:17 | -22.03362 | -158.52223 | 39048 ft | 507 kts | 58° |
| 2026-05-09 00:17 | -22.00221 | -158.45444 | 39046 ft | 506 kts | 58° |
| 2026-05-09 00:18 | -21.97078 | -158.38676 | 39043 ft | 507 kts | 58° |
| 2026-05-09 00:18 | -21.93934 | -158.31905 | 39045 ft | 508 kts | 58° |
| 2026-05-09 00:19 | -21.90780 | -158.25085 | 39052 ft | 509 kts | 58° |
| 2026-05-09 00:19 | -21.87596 | -158.18272 | 39065 ft | 509 kts | 58° |
| 2026-05-09 00:20 | -21.84431 | -158.11540 | 39060 ft | 508 kts | 58° |
| 2026-05-09 00:20 | -21.81235 | -158.04719 | 39066 ft | 508 kts | 58° |
| 2026-05-09 00:21 | -21.78063 | -157.97949 | 39067 ft | 509 kts | 58° |
| 2026-05-09 00:21 | -21.74883 | -157.91162 | 39062 ft | 509 kts | 59° |
| 2026-05-09 00:22 | -21.71728 | -157.84433 | 39068 ft | 508 kts | 59° |
| 2026-05-09 00:22 | -21.68533 | -157.77632 | 39061 ft | 508 kts | 59° |
| 2026-05-09 00:23 | -21.65356 | -157.70874 | 39054 ft | 507 kts | 59° |
| 2026-05-09 00:23 | -21.62191 | -157.64153 | 39055 ft | 507 kts | 59° |
| 2026-05-09 00:24 | -21.59012 | -157.57413 | 39055 ft | 507 kts | 59° |
| 2026-05-09 00:24 | -21.55825 | -157.50665 | 39055 ft | 508 kts | 59° |
| 2026-05-09 00:25 | -21.52619 | -157.43884 | 39052 ft | 508 kts | 59° |
| 2026-05-09 00:25 | -21.49433 | -157.37155 | 39050 ft | 508 kts | 59° |
| 2026-05-09 00:26 | -21.46245 | -157.30414 | 39048 ft | 507 kts | 59° |
| 2026-05-09 00:26 | -21.43072 | -157.23703 | 39048 ft | 507 kts | 59° |
| 2026-05-09 00:27 | -21.39869 | -157.16971 | 39047 ft | 507 kts | 59° |
| 2026-05-09 00:27 | -21.36654 | -157.10237 | 39037 ft | 506 kts | 59° |
| 2026-05-09 00:28 | -21.33462 | -157.03566 | 39041 ft | 506 kts | 59° |
| 2026-05-09 00:28 | -21.30258 | -156.96831 | 39037 ft | 506 kts | 59° |
| 2026-05-09 00:29 | -21.27080 | -156.90120 | 39033 ft | 506 kts | 59° |
| 2026-05-09 00:29 | -21.23893 | -156.83435 | 39032 ft | 506 kts | 59° |
| 2026-05-09 00:30 | -21.20684 | -156.76733 | 39029 ft | 506 kts | 59° |
| 2026-05-09 00:30 | -21.17463 | -156.70023 | 39032 ft | 506 kts | 59° |
| 2026-05-09 00:31 | -21.14270 | -156.63379 | 39033 ft | 506 kts | 59° |
| 2026-05-09 00:31 | -21.11037 | -156.56663 | 39030 ft | 506 kts | 59° |
| 2026-05-09 00:32 | -21.07816 | -156.49980 | 39030 ft | 505 kts | 59° |
| 2026-05-09 00:32 | -21.04615 | -156.43350 | 39027 ft | 505 kts | 59° |
| 2026-05-09 00:33 | -21.01379 | -156.36652 | 39024 ft | 505 kts | 59° |
| 2026-05-09 00:33 | -20.98179 | -156.30016 | 39025 ft | 505 kts | 59° |
| 2026-05-09 00:34 | -20.94978 | -156.23377 | 39025 ft | 505 kts | 59° |
| 2026-05-09 00:34 | -20.91743 | -156.16693 | 39024 ft | 505 kts | 59° |
| 2026-05-09 00:35 | -20.88504 | -156.10036 | 39029 ft | 505 kts | 59° |
| 2026-05-09 00:35 | -20.85256 | -156.03420 | 39025 ft | 504 kts | 59° |
| 2026-05-09 00:36 | -20.82010 | -155.96783 | 39030 ft | 504 kts | 59° |
| 2026-05-09 00:36 | -20.78780 | -155.90169 | 39031 ft | 504 kts | 59° |
| 2026-05-09 00:37 | -20.75552 | -155.83556 | 39030 ft | 505 kts | 59° |
| 2026-05-09 00:37 | -20.72310 | -155.76921 | 39033 ft | 504 kts | 59° |
| 2026-05-09 00:38 | -20.69060 | -155.70276 | 39035 ft | 504 kts | 59° |
| 2026-05-09 00:38 | -20.65816 | -155.63654 | 39033 ft | 504 kts | 59° |
| 2026-05-09 00:39 | -20.62564 | -155.57021 | 39040 ft | 505 kts | 59° |
| 2026-05-09 00:39 | -20.59320 | -155.50413 | 39038 ft | 505 kts | 59° |
| 2026-05-09 00:40 | -20.56063 | -155.43787 | 39042 ft | 505 kts | 59° |
| 2026-05-09 00:40 | -20.52816 | -155.37189 | 39044 ft | 504 kts | 59° |
| 2026-05-09 00:41 | -20.47931 | -155.27240 | 39039 ft | 504 kts | 59° |
| 2026-05-09 00:41 | -20.44691 | -155.20651 | 39038 ft | 504 kts | 59° |
| 2026-05-09 00:42 | -20.41424 | -155.14033 | 39039 ft | 504 kts | 59° |
| 2026-05-09 00:42 | -20.38172 | -155.07455 | 39033 ft | 504 kts | 59° |
| 2026-05-09 00:43 | -20.34912 | -155.00874 | 39036 ft | 504 kts | 59° |
| 2026-05-09 00:43 | -20.31645 | -154.94289 | 39033 ft | 504 kts | 59° |
| 2026-05-09 00:44 | -20.28374 | -154.87703 | 39037 ft | 503 kts | 59° |
| 2026-05-09 00:44 | -20.25103 | -154.81120 | 39034 ft | 503 kts | 59° |
| 2026-05-09 00:45 | -20.21820 | -154.74524 | 39032 ft | 504 kts | 59° |
| 2026-05-09 00:45 | -20.18566 | -154.67989 | 39035 ft | 504 kts | 59° |
| 2026-05-09 00:46 | -20.15276 | -154.61395 | 39032 ft | 503 kts | 59° |
| 2026-05-09 00:46 | -20.12004 | -154.54845 | 39032 ft | 503 kts | 59° |
| 2026-05-09 00:47 | -20.08736 | -154.48309 | 39030 ft | 504 kts | 60° |
| 2026-05-09 00:47 | -20.05430 | -154.41705 | 39039 ft | 504 kts | 60° |
| 2026-05-09 00:48 | -20.02160 | -154.35179 | 39046 ft | 504 kts | 60° |
| 2026-05-09 00:48 | -19.98870 | -154.28593 | 39032 ft | 504 kts | 59° |
| 2026-05-09 00:49 | -19.95598 | -154.22052 | 39031 ft | 503 kts | 59° |
| 2026-05-09 00:49 | -19.92297 | -154.15477 | 39028 ft | 503 kts | 59° |
| 2026-05-09 00:50 | -19.89007 | -154.08946 | 39028 ft | 504 kts | 59° |
| 2026-05-09 00:50 | -19.85671 | -154.02393 | 39026 ft | 503 kts | 59° |
| 2026-05-09 00:51 | -19.82366 | -153.95880 | 39024 ft | 503 kts | 59° |
| 2026-05-09 00:51 | -19.79056 | -153.89339 | 39019 ft | 503 kts | 59° |
| 2026-05-09 00:52 | -19.75758 | -153.82822 | 39011 ft | 503 kts | 59° |
| 2026-05-09 00:52 | -19.72450 | -153.76289 | 39017 ft | 503 kts | 59° |
| 2026-05-09 00:53 | -19.69147 | -153.69774 | 39013 ft | 503 kts | 60° |
| 2026-05-09 00:53 | -19.65823 | -153.63223 | 39014 ft | 503 kts | 60° |
| 2026-05-09 00:54 | -19.62504 | -153.56689 | 39013 ft | 504 kts | 60° |
| 2026-05-09 00:54 | -19.59198 | -153.50191 | 39008 ft | 503 kts | 60° |
| 2026-05-09 00:55 | -19.55884 | -153.43683 | 39005 ft | 503 kts | 60° |
| 2026-05-09 00:55 | -19.52567 | -153.37174 | 39006 ft | 503 kts | 60° |
| 2026-05-09 00:56 | -19.49235 | -153.30624 | 39004 ft | 503 kts | 60° |
| 2026-05-09 00:56 | -19.45945 | -153.24158 | 39005 ft | 502 kts | 59° |
| 2026-05-09 00:57 | -19.42620 | -153.17644 | 39002 ft | 503 kts | 60° |
| 2026-05-09 00:57 | -19.39285 | -153.11127 | 39003 ft | 503 kts | 60° |
| 2026-05-09 00:58 | -19.35958 | -153.04633 | 39008 ft | 503 kts | 60° |
| 2026-05-09 00:58 | -19.32631 | -152.98149 | 39013 ft | 503 kts | 60° |
| 2026-05-09 00:59 | -19.29297 | -152.91656 | 39013 ft | 502 kts | 59° |
| 2026-05-09 00:59 | -19.25976 | -152.85202 | 39013 ft | 501 kts | 59° |
| 2026-05-09 01:00 | -19.22628 | -152.78702 | 39010 ft | 501 kts | 60° |
| 2026-05-09 01:00 | -19.19316 | -152.72276 | 39011 ft | 501 kts | 60° |
| 2026-05-09 01:01 | -19.15972 | -152.65793 | 39009 ft | 502 kts | 60° |
| 2026-05-09 01:01 | -19.12648 | -152.59357 | 39008 ft | 501 kts | 60° |
| 2026-05-09 01:02 | -19.09299 | -152.52879 | 39008 ft | 501 kts | 60° |
| 2026-05-09 01:02 | -19.05973 | -152.46455 | 39008 ft | 500 kts | 60° |
| 2026-05-09 01:03 | -19.02637 | -152.40019 | 39006 ft | 500 kts | 60° |
| 2026-05-09 01:03 | -18.99301 | -152.33588 | 39003 ft | 499 kts | 59° |
| 2026-05-09 01:04 | -18.96001 | -152.27202 | 39006 ft | 498 kts | 60° |
| 2026-05-09 01:04 | -18.92661 | -152.20760 | 39006 ft | 498 kts | 59° |
| 2026-05-09 01:05 | -18.89348 | -152.14391 | 39006 ft | 498 kts | 59° |
| 2026-05-09 01:06 | -18.84317 | -152.04817 | 39004 ft | 498 kts | 59° |
| 2026-05-09 01:06 | -18.80980 | -151.98442 | 39007 ft | 497 kts | 59° |
| 2026-05-09 01:07 | -18.77645 | -151.92068 | 39004 ft | 496 kts | 59° |
| 2026-05-09 01:07 | -18.74313 | -151.85701 | 39004 ft | 496 kts | 59° |
| 2026-05-09 01:08 | -18.70980 | -151.79336 | 39002 ft | 496 kts | 60° |
| 2026-05-09 01:08 | -18.67662 | -151.73009 | 39002 ft | 495 kts | 60° |
| 2026-05-09 01:09 | -18.64334 | -151.66673 | 39002 ft | 495 kts | 60° |
| 2026-05-09 01:09 | -18.60996 | -151.60329 | 39002 ft | 495 kts | 59° |
| 2026-05-09 01:10 | -18.57658 | -151.54001 | 39001 ft | 495 kts | 59° |
| 2026-05-09 01:10 | -18.54328 | -151.47690 | 39000 ft | 494 kts | 59° |
| 2026-05-09 01:11 | -18.51221 | -151.41191 | 38996 ft | 496 kts | 65° |
| 2026-05-09 01:11 | -18.48567 | -151.34525 | 38957 ft | 497 kts | 66° |
| 2026-05-09 01:11 | -18.47249 | -151.31177 | 38438 ft | 496 kts | 66° |
| 2026-05-09 01:12 | -18.45937 | -151.27844 | 37849 ft | 493 kts | 66° |
| 2026-05-09 01:12 | -18.44623 | -151.24524 | 37199 ft | 491 kts | 66° |
| 2026-05-09 01:12 | -18.43319 | -151.21240 | 36517 ft | 490 kts | 65° |
| 2026-05-09 01:12 | -18.41992 | -151.17911 | 35735 ft | 491 kts | 65° |
| 2026-05-09 01:13 | -18.40688 | -151.14645 | 35005 ft | 491 kts | 65° |
| 2026-05-09 01:13 | -18.39368 | -151.11340 | 34269 ft | 491 kts | 65° |
| 2026-05-09 01:13 | -18.38034 | -151.08009 | 33526 ft | 491 kts | 65° |
| 2026-05-09 01:13 | -18.36710 | -151.04707 | 32778 ft | 492 kts | 65° |
| 2026-05-09 01:14 | -18.35397 | -151.01434 | 32115 ft | 493 kts | 65° |
| 2026-05-09 01:14 | -18.34051 | -150.98082 | 31394 ft | 494 kts | 66° |
| 2026-05-09 01:14 | -18.32722 | -150.94774 | 30649 ft | 495 kts | 66° |
| 2026-05-09 01:14 | -18.31386 | -150.91443 | 29869 ft | 497 kts | 66° |
| 2026-05-09 01:15 | -18.30054 | -150.88129 | 29099 ft | 498 kts | 66° |
| 2026-05-09 01:15 | -18.28700 | -150.84757 | 28294 ft | 500 kts | 66° |
| 2026-05-09 01:15 | -18.27349 | -150.81395 | 27458 ft | 501 kts | 66° |
| 2026-05-09 01:15 | -18.25998 | -150.78036 | 26869 ft | 499 kts | 66° |
| 2026-05-09 01:16 | -18.24651 | -150.74690 | 26386 ft | 495 kts | 66° |
| 2026-05-09 01:16 | -18.23322 | -150.71391 | 25845 ft | 493 kts | 66° |
| 2026-05-09 01:16 | -18.21996 | -150.68103 | 25275 ft | 488 kts | 66° |
| 2026-05-09 01:17 | -18.19356 | -150.61568 | 24010 ft | 482 kts | 67° |
| 2026-05-09 01:17 | -18.18048 | -150.58331 | 23318 ft | 480 kts | 67° |
| 2026-05-09 01:17 | -18.16749 | -150.55125 | 22647 ft | 477 kts | 67° |
| 2026-05-09 01:17 | -18.15461 | -150.51947 | 21998 ft | 474 kts | 67° |
| 2026-05-09 01:18 | -18.14174 | -150.48776 | 21358 ft | 471 kts | 67° |
| 2026-05-09 01:18 | -18.12892 | -150.45624 | 20730 ft | 467 kts | 67° |
| 2026-05-09 01:18 | -18.11638 | -150.42546 | 20101 ft | 463 kts | 68° |
| 2026-05-09 01:18 | -18.10375 | -150.39445 | 19467 ft | 460 kts | 68° |
| 2026-05-09 01:19 | -18.09117 | -150.36353 | 18829 ft | 456 kts | 68° |
| 2026-05-09 01:19 | -18.07885 | -150.33315 | 18194 ft | 452 kts | 66° |
| 2026-05-09 01:19 | -18.06502 | -150.30379 | 17655 ft | 446 kts | 61° |
| 2026-05-09 01:19 | -18.04867 | -150.27673 | 17211 ft | 439 kts | 55° |
| 2026-05-09 01:20 | -18.02972 | -150.25166 | 16807 ft | 432 kts | 50° |
| 2026-05-09 01:20 | -18.01024 | -150.22835 | 16429 ft | 424 kts | 49° |
| 2026-05-09 01:20 | -17.99039 | -150.20508 | 16058 ft | 426 kts | 49° |
| 2026-05-09 01:20 | -17.97077 | -150.18216 | 15664 ft | 424 kts | 49° |
| 2026-05-09 01:21 | -17.95110 | -150.15912 | 15227 ft | 420 kts | 49° |
| 2026-05-09 01:21 | -17.93187 | -150.13657 | 14775 ft | 417 kts | 49° |
| 2026-05-09 01:21 | -17.91255 | -150.11386 | 14307 ft | 413 kts | 49° |
| 2026-05-09 01:21 | -17.89354 | -150.09154 | 13840 ft | 409 kts | 49° |
| 2026-05-09 01:22 | -17.87464 | -150.06947 | 13370 ft | 405 kts | 49° |
| 2026-05-09 01:22 | -17.85578 | -150.04747 | 12903 ft | 402 kts | 49° |
| 2026-05-09 01:22 | -17.83727 | -150.02585 | 12436 ft | 398 kts | 49° |
| 2026-05-09 01:22 | -17.81896 | -150.00439 | 11955 ft | 394 kts | 49° |
| 2026-05-09 01:23 | -17.80077 | -149.98309 | 11480 ft | 390 kts | 49° |
| 2026-05-09 01:23 | -17.78274 | -149.96196 | 11012 ft | 386 kts | 50° |
| 2026-05-09 01:23 | -17.76509 | -149.94125 | 10828 ft | 372 kts | 50° |
| 2026-05-09 01:23 | -17.74802 | -149.92127 | 10675 ft | 359 kts | 50° |
| 2026-05-09 01:24 | -17.73166 | -149.90210 | 10532 ft | 346 kts | 50° |
| 2026-05-09 01:24 | -17.71591 | -149.88367 | 10401 ft | 333 kts | 50° |
| 2026-05-09 01:24 | -17.70079 | -149.86598 | 10289 ft | 321 kts | 50° |
| 2026-05-09 01:24 | -17.68608 | -149.84876 | 10190 ft | 309 kts | 50° |
| 2026-05-09 01:25 | -17.67206 | -149.83238 | 10075 ft | 298 kts | 50° |
| 2026-05-09 01:25 | -17.65854 | -149.81656 | 10017 ft | 286 kts | 50° |
| 2026-05-09 01:25 | -17.64539 | -149.80118 | 9879 ft | 279 kts | 50° |
| 2026-05-09 01:25 | -17.63261 | -149.78626 | 9593 ft | 277 kts | 50° |
| 2026-05-09 01:26 | -17.61971 | -149.77115 | 9292 ft | 277 kts | 50° |
| 2026-05-09 01:26 | -17.60688 | -149.75610 | 9004 ft | 275 kts | 50° |
| 2026-05-09 01:26 | -17.59419 | -149.74127 | 8730 ft | 273 kts | 50° |
| 2026-05-09 01:26 | -17.58159 | -149.72650 | 8461 ft | 271 kts | 50° |
| 2026-05-09 01:27 | -17.56904 | -149.71184 | 8203 ft | 268 kts | 50° |
| 2026-05-09 01:27 | -17.55663 | -149.69733 | 7935 ft | 265 kts | 51° |
| 2026-05-09 01:27 | -17.54446 | -149.68312 | 7668 ft | 261 kts | 50° |
| 2026-05-09 01:27 | -17.53239 | -149.66901 | 7430 ft | 258 kts | 50° |
| 2026-05-09 01:28 | -17.52037 | -149.65497 | 7195 ft | 255 kts | 50° |
| 2026-05-09 01:28 | -17.50861 | -149.64125 | 6966 ft | 252 kts | 50° |
| 2026-05-09 01:28 | -17.49704 | -149.62772 | 6720 ft | 250 kts | 50° |
| 2026-05-09 01:28 | -17.48535 | -149.61409 | 6481 ft | 247 kts | 50° |
| 2026-05-09 01:29 | -17.47395 | -149.60077 | 6235 ft | 245 kts | 50° |
| 2026-05-09 01:29 | -17.46263 | -149.58757 | 5991 ft | 242 kts | 50° |
| 2026-05-09 01:29 | -17.45146 | -149.57454 | 5759 ft | 240 kts | 50° |
| 2026-05-09 01:29 | -17.44036 | -149.56161 | 5547 ft | 237 kts | 50° |
| 2026-05-09 01:30 | -17.42937 | -149.54881 | 5317 ft | 234 kts | 50° |
| 2026-05-09 01:30 | -17.41849 | -149.53613 | 5094 ft | 232 kts | 50° |
| 2026-05-09 01:30 | -17.40780 | -149.52368 | 4868 ft | 227 kts | 50° |
| 2026-05-09 01:30 | -17.39739 | -149.51155 | 4643 ft | 223 kts | 51° |
| 2026-05-09 01:31 | -17.38709 | -149.49956 | 4434 ft | 219 kts | 51° |
| 2026-05-09 01:31 | -17.37699 | -149.48778 | 4217 ft | 214 kts | 52° |
| 2026-05-09 01:31 | -17.36940 | -149.47470 | 3969 ft | 209 kts | 76° |
| 2026-05-09 01:31 | -17.36837 | -149.45976 | 3739 ft | 207 kts | 99° |
| 2026-05-09 01:32 | -17.37342 | -149.44604 | 3591 ft | 203 kts | 121° |
| 2026-05-09 01:32 | -17.38324 | -149.43581 | 3532 ft | 197 kts | 143° |
| 2026-05-09 01:32 | -17.39532 | -149.42944 | 3493 ft | 186 kts | 149° |
| 2026-05-09 01:32 | -17.40689 | -149.42403 | 3466 ft | 181 kts | 154° |
| 2026-05-09 01:33 | -17.41941 | -149.42278 | 3371 ft | 188 kts | 189° |
| 2026-05-09 01:33 | -17.43130 | -149.42931 | 3310 ft | 197 kts | 224° |
| 2026-05-09 01:33 | -17.43979 | -149.44073 | 3290 ft | 202 kts | 233° |
| 2026-05-09 01:33 | -17.44760 | -149.45291 | 3231 ft | 201 kts | 234° |
| 2026-05-09 01:34 | -17.45516 | -149.46475 | 3185 ft | 189 kts | 233° |
| 2026-05-09 01:34 | -17.46257 | -149.47606 | 2998 ft | 187 kts | 232° |
| 2026-05-09 01:34 | -17.47006 | -149.48711 | 2751 ft | 185 kts | 231° |
| 2026-05-09 01:34 | -17.47752 | -149.49794 | 2496 ft | 183 kts | 231° |
| 2026-05-09 01:35 | -17.48495 | -149.50867 | 2233 ft | 181 kts | 231° |
| 2026-05-09 01:35 | -17.49226 | -149.51924 | 1957 ft | 176 kts | 230° |
| 2026-05-09 01:35 | -17.49934 | -149.52949 | 1697 ft | 170 kts | 230° |
| 2026-05-09 01:35 | -17.50622 | -149.53943 | 1450 ft | 165 kts | 230° |
| 2026-05-09 01:36 | -17.51290 | -149.54901 | 1212 ft | 164 kts | 232° |
| 2026-05-09 01:36 | -17.51960 | -149.55872 | 976 ft | 160 kts | 232° |
| 2026-05-09 01:36 | -17.52608 | -149.56804 | 749 ft | 158 kts | 233° |
| 2026-05-09 01:36 | -17.53243 | -149.57722 | 522 ft | 155 kts | 233° |
| 2026-05-09 01:37 | -17.53890 | -149.58607 | 275 ft | 152 kts | 233° |
| 2026-05-09 01:37 | -17.54517 | -149.59486 | 63 ft | 148 kts | 236° |
| 2026-05-09 01:37 | -17.55070 | -149.60290 | 19 ft | 114 kts | 234° |
| 2026-05-09 01:37 | -17.55431 | -149.60811 | 24 ft | 62 kts | 234° |
| 2026-05-09 01:38 | -17.55589 | -149.61043 | 28 ft | 26 kts | 233° |
| 2026-05-09 01:38 | -17.55667 | -149.61128 | 29 ft | 11 kts | 194° |
| 2026-05-09 01:38 | -17.55723 | -149.61105 | 31 ft | 5 kts | 145° |
| 2026-05-09 01:38 | -17.55742 | -149.61092 | 31 ft | 3 kts | 146° |
| 2026-05-09 01:39 | -17.55758 | -149.61076 | 32 ft | 3 kts | 129° |
| 2026-05-09 01:39 | -17.55766 | -149.61055 | 32 ft | 3 kts | 96° |
| 2026-05-09 01:39 | -17.55762 | -149.61028 | 32 ft | 3 kts | 81° |
| 2026-05-09 01:39 | -17.55769 | -149.61003 | 33 ft | 3 kts | 123° |
| 2026-05-09 01:40 | -17.55784 | -149.60985 | 33 ft | 0 kts | 137° |
| 2026-05-09 01:40 | -17.55788 | -149.60982 | 33 ft | 1 kts | 138° |
| 2026-05-09 01:40 | -17.55801 | -149.60969 | 33 ft | 3 kts | 140° |
| 2026-05-09 01:40 | -17.55813 | -149.60960 | 33 ft | 1 kts | 144° |
| 2026-05-09 01:41 | -17.55815 | -149.60959 | 34 ft | 0 kts | 144° |